Wetterdaten: aktuell Donnerstag, 21.06.2018 11:52
Datum Zeit Temp. A. Feuchte A. Luftdruck Regen Wind Richtung Richtung Sonnenschein UV-Index Solar Windchill Windben
21.06.2018 11:52 26.8 C 63 % 1014.6 mbar 0.00 mm 4.8 km/h N-NO 12 2 min 5.9 UV-I 888 W/m 26.8 C 8.0 km/h
21.06.2018 11:50 26.7 C 64 % 1014.5 mbar 0.00 mm 7.1 km/h N 4 2 min 6.0 UV-I 893 W/m 26.6 C 11.3 km/h
21.06.2018 11:48 26.5 C 61 % 1014.6 mbar 0.00 mm 4.5 km/h NO 40 2 min 5.9 UV-I 886 W/m 26.5 C 8.0 km/h
21.06.2018 11:46 26.4 C 60 % 1014.7 mbar 0.00 mm 4.2 km/h N-NO 29 2 min 5.9 UV-I 916 W/m 26.4 C 8.0 km/h
21.06.2018 11:44 26.4 C 63 % 1014.6 mbar 0.00 mm 6.9 km/h N-NW 344 2 min 5.9 UV-I 916 W/m 26.3 C 11.3 km/h
21.06.2018 11:42 26.2 C 63 % 1014.7 mbar 0.00 mm 0.0 km/h N 354 2 min 5.9 UV-I 939 W/m 26.2 C 0.0 km/h
21.06.2018 11:40 26.1 C 67 % 1014.7 mbar 0.00 mm 0.0 km/h NW 325 2 min 5.8 UV-I 953 W/m 26.1 C 0.0 km/h
21.06.2018 11:38 26.0 C 65 % 1014.7 mbar 0.00 mm 0.0 km/h W-SW 247 2 min 4.3 UV-I 332 W/m 26.0 C 1.6 km/h
21.06.2018 11:36 25.9 C 64 % 1014.7 mbar 0.00 mm 1.4 km/h W-SW 247 2 min 5.2 UV-I 786 W/m 25.9 C 3.2 km/h
21.06.2018 11:34 25.9 C 65 % 1014.7 mbar 0.00 mm 1.9 km/h W-SW 245 0 min 4.0 UV-I 243 W/m 25.9 C 3.2 km/h
21.06.2018 11:32 25.9 C 64 % 1014.7 mbar 0.00 mm 0.9 km/h W-SW 245 2 min 3.2 UV-I 290 W/m 25.9 C 3.2 km/h
21.06.2018 11:30 25.8 C 63 % 1014.7 mbar 0.00 mm 2.0 km/h W-SW 245 0 min 3.0 UV-I 262 W/m 25.8 C 3.2 km/h
21.06.2018 11:28 25.8 C 66 % 1014.7 mbar 0.00 mm 2.1 km/h W-SW 245 0 min 2.9 UV-I 262 W/m 25.8 C 4.8 km/h
21.06.2018 11:26 25.8 C 66 % 1014.7 mbar 0.00 mm 1.3 km/h W-SW 245 2 min 3.2 UV-I 279 W/m 25.8 C 4.8 km/h
21.06.2018 11:24 25.8 C 64 % 1014.6 mbar 0.00 mm 3.3 km/h W-SW 245 2 min 2.8 UV-I 271 W/m 25.8 C 6.4 km/h
21.06.2018 11:22 25.8 C 66 % 1014.6 mbar 0.00 mm 1.6 km/h W-SW 245 2 min 2.9 UV-I 290 W/m 25.8 C 4.8 km/h
21.06.2018 11:20 25.7 C 63 % 1014.7 mbar 0.00 mm 2.5 km/h W-SW 247 2 min 2.8 UV-I 290 W/m 25.7 C 6.4 km/h
21.06.2018 11:18 25.7 C 65 % 1014.7 mbar 0.00 mm 5.7 km/h W-SW 247 2 min 2.9 UV-I 299 W/m 25.7 C 8.0 km/h
21.06.2018 11:16 25.6 C 67 % 1014.7 mbar 0.00 mm 2.3 km/h W-SW 250 2 min 4.2 UV-I 937 W/m 25.6 C 4.8 km/h
21.06.2018 11:14 25.4 C 65 % 1014.6 mbar 0.00 mm 2.0 km/h W-SW 251 2 min 4.9 UV-I 921 W/m 25.4 C 4.8 km/h
21.06.2018 11:12 25.3 C 64 % 1014.7 mbar 0.00 mm 2.6 km/h W-SW 252 2 min 5.0 UV-I 856 W/m 25.3 C 4.8 km/h
21.06.2018 11:10 25.3 C 64 % 1014.6 mbar 0.00 mm 1.9 km/h W-SW 252 2 min 3.1 UV-I 374 W/m 25.3 C 3.2 km/h
21.06.2018 11:08 25.3 C 66 % 1014.5 mbar 0.00 mm 3.9 km/h W-SW 252 2 min 3.1 UV-I 285 W/m 25.3 C 6.4 km/h
21.06.2018 11:06 25.2 C 66 % 1014.6 mbar 0.00 mm 3.5 km/h W 278 2 min 4.5 UV-I 830 W/m 25.2 C 4.8 km/h
21.06.2018 11:04 25.2 C 62 % 1014.6 mbar 0.00 mm 4.0 km/h W-NW 287 0 min 2.7 UV-I 214 W/m 25.2 C 6.4 km/h
21.06.2018 11:02 25.3 C 65 % 1014.6 mbar 0.00 mm 4.8 km/h W-NW 297 0 min 2.4 UV-I 195 W/m 25.3 C 6.4 km/h
21.06.2018 11:00 25.3 C 65 % 1014.6 mbar 0.00 mm 3.8 km/h W 277 0 min 2.3 UV-I 181 W/m 25.3 C 4.8 km/h
21.06.2018 10:58 25.3 C 64 % 1014.5 mbar 0.00 mm 2.7 km/h W 274 2 min 2.2 UV-I 283 W/m 25.3 C 4.8 km/h
21.06.2018 10:56 25.2 C 63 % 1014.5 mbar 0.00 mm 4.7 km/h W 274 2 min 2.2 UV-I 283 W/m 25.2 C 9.7 km/h
21.06.2018 10:54 25.2 C 67 % 1014.5 mbar 0.00 mm 4.0 km/h W 264 2 min 3.9 UV-I 819 W/m 25.2 C 11.3 km/h
21.06.2018 10:52 25.2 C 63 % 1014.5 mbar 0.00 mm 3.3 km/h N-NW 328 2 min 4.0 UV-I 844 W/m 25.2 C 4.8 km/h
21.06.2018 10:50 25.2 C 65 % 1014.4 mbar 0.00 mm 1.2 km/h N-NW 328 2 min 4.1 UV-I 281 W/m 25.2 C 3.2 km/h
21.06.2018 10:48 25.3 C 65 % 1014.4 mbar 0.00 mm 4.3 km/h N-NW 330 0 min 3.0 UV-I 239 W/m 25.3 C 6.4 km/h
21.06.2018 10:46 25.4 C 62 % 1014.3 mbar 0.00 mm 6.1 km/h NW 308 0 min 2.4 UV-I 236 W/m 25.4 C 12.9 km/h
21.06.2018 10:44 25.5 C 62 % 1014.4 mbar 0.00 mm 4.7 km/h NW 321 2 min 2.3 UV-I 830 W/m 25.5 C 11.3 km/h
21.06.2018 10:42 25.6 C 62 % 1014.4 mbar 0.00 mm 3.9 km/h W-NW 293 2 min 4.0 UV-I 837 W/m 25.6 C 6.4 km/h
21.06.2018 10:40 25.6 C 66 % 1014.4 mbar 0.00 mm 1.3 km/h W-NW 295 2 min 4.1 UV-I 826 W/m 25.6 C 4.8 km/h
21.06.2018 10:38 25.6 C 64 % 1014.4 mbar 0.00 mm 3.9 km/h W-NW 303 2 min 4.1 UV-I 812 W/m 25.6 C 6.4 km/h
21.06.2018 10:36 25.7 C 64 % 1014.4 mbar 0.00 mm 2.8 km/h NW 317 2 min 4.1 UV-I 810 W/m 25.7 C 6.4 km/h
21.06.2018 10:34 25.7 C 64 % 1014.4 mbar 0.00 mm 6.0 km/h N-NW 345 2 min 4.1 UV-I 809 W/m 25.7 C 9.7 km/h
21.06.2018 10:32 25.8 C 63 % 1014.4 mbar 0.00 mm 4.8 km/h N-NW 346 0 min 4.0 UV-I 211 W/m 25.8 C 8.0 km/h
21.06.2018 10:30 25.8 C 63 % 1014.4 mbar 0.00 mm 3.6 km/h N 8 0 min 3.9 UV-I 211 W/m 25.8 C 4.8 km/h
21.06.2018 10:28 25.8 C 64 % 1014.4 mbar 0.00 mm 6.1 km/h NO 46 2 min 3.1 UV-I 735 W/m 25.8 C 9.7 km/h
21.06.2018 10:26 25.7 C 63 % 1014.4 mbar 0.00 mm 4.2 km/h NO 52 2 min 3.8 UV-I 765 W/m 25.7 C 9.7 km/h
21.06.2018 10:24 25.6 C 61 % 1014.4 mbar 0.00 mm 2.4 km/h O-NO 65 2 min 3.8 UV-I 756 W/m 25.6 C 4.8 km/h
21.06.2018 10:22 25.6 C 64 % 1014.4 mbar 0.00 mm 5.1 km/h O-NO 60 2 min 3.8 UV-I 756 W/m 25.6 C 8.0 km/h
21.06.2018 10:20 25.5 C 67 % 1014.4 mbar 0.00 mm 5.6 km/h O-NO 66 2 min 3.7 UV-I 735 W/m 25.5 C 11.3 km/h
21.06.2018 10:18 25.4 C 65 % 1014.4 mbar 0.00 mm 2.7 km/h NO 43 2 min 3.6 UV-I 701 W/m 25.4 C 6.4 km/h
21.06.2018 10:16 25.3 C 66 % 1014.4 mbar 0.00 mm 2.3 km/h O-NO 62 2 min 3.6 UV-I 693 W/m 25.3 C 4.8 km/h
21.06.2018 10:14 25.3 C 68 % 1014.4 mbar 0.00 mm 4.1 km/h O-NO 70 2 min 3.6 UV-I 696 W/m 25.3 C 8.0 km/h
21.06.2018 10:12 25.2 C 66 % 1014.4 mbar 0.00 mm 2.8 km/h NO 41 2 min 3.4 UV-I 691 W/m 25.2 C 4.8 km/h
21.06.2018 10:10 25.2 C 70 % 1014.5 mbar 0.00 mm 4.4 km/h NO 41 2 min 3.3 UV-I 696 W/m 25.2 C 6.4 km/h
21.06.2018 10:08 25.1 C 68 % 1014.4 mbar 0.00 mm 4.9 km/h O-SO 120 2 min 3.3 UV-I 714 W/m 25.1 C 6.4 km/h
21.06.2018 10:06 25.1 C 68 % 1014.5 mbar 0.00 mm 3.1 km/h O-SO 123 2 min 3.3 UV-I 712 W/m 25.1 C 6.4 km/h
21.06.2018 10:04 25.1 C 73 % 1014.5 mbar 0.00 mm 4.3 km/h O-SO 121 2 min 3.3 UV-I 694 W/m 25.1 C 6.4 km/h
21.06.2018 10:02 25.1 C 69 % 1014.5 mbar 0.00 mm 4.0 km/h O 96 2 min 3.2 UV-I 680 W/m 25.1 C 8.0 km/h
21.06.2018 10:00 24.9 C 68 % 1014.5 mbar 0.00 mm 3.1 km/h O-SO 103 2 min 3.2 UV-I 668 W/m 24.9 C 6.4 km/h
21.06.2018 09:58 24.8 C 68 % 1014.5 mbar 0.00 mm 0.0 km/h O 99 2 min 3.1 UV-I 664 W/m 24.8 C 0.0 km/h
21.06.2018 09:56 24.8 C 68 % 1014.5 mbar 0.00 mm 0.6 km/h N 5 2 min 3.0 UV-I 666 W/m 24.8 C 3.2 km/h
21.06.2018 09:54 24.7 C 68 % 1014.6 mbar 0.00 mm 2.6 km/h N 5 2 min 3.0 UV-I 691 W/m 24.7 C 4.8 km/h
21.06.2018 09:52 24.7 C 67 % 1014.6 mbar 0.00 mm 2.0 km/h N 4 2 min 2.9 UV-I 668 W/m 24.7 C 4.8 km/h
21.06.2018 09:50 24.7 C 68 % 1014.7 mbar 0.00 mm 0.0 km/h N 4 2 min 2.9 UV-I 668 W/m 24.7 C 0.0 km/h
21.06.2018 09:48 24.7 C 68 % 1014.6 mbar 0.00 mm 0.0 km/h N 4 2 min 2.8 UV-I 671 W/m 24.7 C 0.0 km/h
21.06.2018 09:46 24.6 C 69 % 1014.7 mbar 0.00 mm 0.1 km/h N 7 2 min 2.7 UV-I 605 W/m 24.6 C 1.6 km/h
21.06.2018 09:44 24.6 C 69 % 1014.7 mbar 0.00 mm 2.0 km/h N 7 2 min 2.7 UV-I 622 W/m 24.6 C 4.8 km/h
21.06.2018 09:42 24.5 C 69 % 1014.7 mbar 0.00 mm 1.1 km/h O 101 2 min 2.2 UV-I 622 W/m 24.5 C 3.2 km/h
21.06.2018 09:40 24.4 C 71 % 1014.7 mbar 0.00 mm 3.0 km/h O 101 2 min 2.6 UV-I 642 W/m 24.4 C 4.8 km/h
21.06.2018 09:38 24.3 C 71 % 1014.7 mbar 0.00 mm 0.2 km/h NO 51 2 min 2.6 UV-I 622 W/m 24.3 C 1.6 km/h
21.06.2018 09:36 24.2 C 70 % 1014.8 mbar 0.00 mm 1.4 km/h NO 50 2 min 2.5 UV-I 594 W/m 24.2 C 3.2 km/h
21.06.2018 09:34 24.1 C 71 % 1014.8 mbar 0.00 mm 3.4 km/h NO 51 2 min 2.5 UV-I 585 W/m 24.1 C 4.8 km/h
21.06.2018 09:32 23.9 C 73 % 1014.8 mbar 0.00 mm 4.8 km/h NO 52 2 min 2.4 UV-I 568 W/m 23.9 C 6.4 km/h
21.06.2018 09:30 23.8 C 74 % 1014.8 mbar 0.00 mm 3.3 km/h O-NO 60 2 min 2.3 UV-I 550 W/m 23.8 C 4.8 km/h
21.06.2018 09:28 23.7 C 73 % 1014.8 mbar 0.00 mm 3.7 km/h O 100 2 min 2.3 UV-I 533 W/m 23.7 C 4.8 km/h
21.06.2018 09:26 23.6 C 76 % 1014.9 mbar 0.00 mm 2.5 km/h O-NO 59 2 min 2.2 UV-I 524 W/m 23.6 C 4.8 km/h
21.06.2018 09:24 23.4 C 75 % 1014.9 mbar 0.00 mm 1.6 km/h NO 43 2 min 2.2 UV-I 520 W/m 23.4 C 3.2 km/h
21.06.2018 09:22 23.3 C 76 % 1014.9 mbar 0.00 mm 1.6 km/h NO 43 2 min 2.2 UV-I 510 W/m 23.3 C 3.2 km/h
21.06.2018 09:20 23.3 C 74 % 1015.0 mbar 0.00 mm 0.3 km/h N-NO 29 2 min 2.1 UV-I 513 W/m 23.3 C 1.6 km/h
21.06.2018 09:18 23.2 C 77 % 1015.0 mbar 0.00 mm 1.7 km/h N-NO 29 2 min 2.1 UV-I 510 W/m 23.2 C 4.8 km/h
21.06.2018 09:16 23.1 C 77 % 1015.0 mbar 0.00 mm 0.6 km/h N-NO 29 2 min 2.1 UV-I 513 W/m 23.1 C 3.2 km/h
21.06.2018 09:14 22.9 C 75 % 1015.1 mbar 0.00 mm 2.2 km/h N-NO 29 2 min 2.0 UV-I 501 W/m 22.9 C 3.2 km/h
21.06.2018 09:12 22.8 C 77 % 1015.1 mbar 0.00 mm 0.8 km/h N-NO 29 2 min 2.0 UV-I 504 W/m 22.8 C 1.6 km/h
21.06.2018 09:10 22.8 C 76 % 1015.1 mbar 0.00 mm 0.9 km/h N-NO 29 2 min 2.0 UV-I 480 W/m 22.8 C 3.2 km/h
21.06.2018 09:08 22.7 C 78 % 1015.2 mbar 0.00 mm 0.4 km/h N-NO 29 2 min 1.9 UV-I 515 W/m 22.7 C 3.2 km/h
21.06.2018 09:06 22.7 C 75 % 1015.2 mbar 0.00 mm 1.8 km/h N-NO 29 2 min 1.8 UV-I 492 W/m 22.7 C 3.2 km/h
21.06.2018 09:04 22.6 C 76 % 1015.2 mbar 0.00 mm 1.6 km/h N-NO 29 0 min 1.4 UV-I 148 W/m 22.6 C 3.2 km/h
21.06.2018 09:02 22.6 C 75 % 1015.3 mbar 0.00 mm 0.7 km/h N-NO 29 2 min 1.6 UV-I 408 W/m 22.6 C 3.2 km/h
21.06.2018 09:00 22.6 C 75 % 1015.2 mbar 0.00 mm 2.0 km/h N-NO 29 0 min 1.5 UV-I 160 W/m 22.6 C 3.2 km/h
21.06.2018 08:58 22.6 C 76 % 1015.3 mbar 0.00 mm 1.8 km/h N-NO 29 0 min 1.3 UV-I 160 W/m 22.6 C 3.2 km/h
21.06.2018 08:56 22.6 C 75 % 1015.2 mbar 0.00 mm 2.3 km/h N-NO 30 0 min 1.6 UV-I 200 W/m 22.6 C 3.2 km/h
21.06.2018 08:54 22.5 C 76 % 1015.3 mbar 0.00 mm 2.5 km/h N-NO 30 0 min 1.3 UV-I 239 W/m 22.5 C 4.8 km/h
21.06.2018 08:52 22.4 C 76 % 1015.2 mbar 0.00 mm 2.2 km/h N-NO 33 2 min 1.0 UV-I 359 W/m 22.4 C 4.8 km/h
21.06.2018 08:50 22.3 C 76 % 1015.3 mbar 0.00 mm 1.7 km/h N-NO 33 2 min 1.3 UV-I 411 W/m 22.3 C 3.2 km/h
21.06.2018 08:48 22.2 C 79 % 1015.3 mbar 0.00 mm 0.0 km/h NO 35 2 min 1.5 UV-I 468 W/m 22.2 C 0.0 km/h
21.06.2018 08:46 22.1 C 77 % 1015.3 mbar 0.00 mm 0.0 km/h NO 35 2 min 1.4 UV-I 455 W/m 22.1 C 0.0 km/h
21.06.2018 08:44 21.9 C 78 % 1015.3 mbar 0.00 mm 1.1 km/h NO 35 2 min 1.4 UV-I 429 W/m 21.9 C 3.2 km/h
21.06.2018 08:42 21.8 C 79 % 1015.3 mbar 0.00 mm 2.4 km/h NO 35 2 min 1.3 UV-I 418 W/m 21.8 C 3.2 km/h
21.06.2018 08:40 21.7 C 79 % 1015.3 mbar 0.00 mm 0.5 km/h NO 35 2 min 1.3 UV-I 427 W/m 21.7 C 3.2 km/h
21.06.2018 08:38 21.5 C 82 % 1015.3 mbar 0.00 mm 1.1 km/h NO 35 2 min 1.2 UV-I 392 W/m 21.5 C 1.6 km/h
21.06.2018 08:36 21.3 C 81 % 1015.4 mbar 0.00 mm 2.1 km/h NO 35 2 min 1.2 UV-I 299 W/m 21.3 C 3.2 km/h
21.06.2018 08:34 21.2 C 83 % 1015.4 mbar 0.00 mm 0.7 km/h NO 35 2 min 1.2 UV-I 404 W/m 21.2 C 3.2 km/h
21.06.2018 08:32 21.0 C 82 % 1015.4 mbar 0.00 mm 0.9 km/h NO 35 2 min 1.2 UV-I 399 W/m 21.0 C 1.6 km/h
21.06.2018 08:30 20.9 C 82 % 1015.4 mbar 0.00 mm 0.0 km/h NO 35 2 min 1.2 UV-I 394 W/m 20.9 C 0.0 km/h
21.06.2018 08:28 20.8 C 84 % 1015.4 mbar 0.00 mm 0.0 km/h NO 35 2 min 1.2 UV-I 399 W/m 20.8 C 0.0 km/h
21.06.2018 08:26 20.7 C 85 % 1015.5 mbar 0.00 mm 0.0 km/h NO 35 2 min 1.1 UV-I 396 W/m 20.7 C 0.0 km/h
21.06.2018 08:24 20.5 C 86 % 1015.5 mbar 0.00 mm 0.0 km/h NO 35 2 min 1.1 UV-I 383 W/m 20.5 C 0.0 km/h
21.06.2018 08:22 20.3 C 86 % 1015.6 mbar 0.00 mm 0.0 km/h NO 35 2 min 1.0 UV-I 374 W/m 20.3 C 0.0 km/h
21.06.2018 08:20 20.2 C 86 % 1015.6 mbar 0.00 mm 0.0 km/h W 270 2 min 1.0 UV-I 371 W/m 20.2 C 0.0 km/h
21.06.2018 08:18 20.1 C 88 % 1015.6 mbar 0.00 mm 0.0 km/h W 270 2 min 1.0 UV-I 364 W/m 20.1 C 0.0 km/h
21.06.2018 08:16 19.9 C 88 % 1015.7 mbar 0.00 mm 0.0 km/h W 270 2 min 0.9 UV-I 346 W/m 19.9 C 0.0 km/h
21.06.2018 08:14 19.8 C 87 % 1015.7 mbar 0.00 mm 0.0 km/h W 270 0 min 0.9 UV-I 120 W/m 19.8 C 0.0 km/h
21.06.2018 08:12 19.7 C 86 % 1015.7 mbar 0.00 mm 0.1 km/h W 270 0 min 0.8 UV-I 241 W/m 19.7 C 1.6 km/h
21.06.2018 08:10 19.6 C 86 % 1015.7 mbar 0.00 mm 0.8 km/h W 270 0 min 0.7 UV-I 135 W/m 19.6 C 1.6 km/h
21.06.2018 08:08 19.5 C 86 % 1015.7 mbar 0.00 mm 1.7 km/h W 270 0 min 0.7 UV-I 193 W/m 19.5 C 3.2 km/h
21.06.2018 08:06 19.4 C 88 % 1015.8 mbar 0.00 mm 1.0 km/h W 270 0 min 0.7 UV-I 116 W/m 19.4 C 3.2 km/h
21.06.2018 08:04 19.4 C 89 % 1015.8 mbar 0.00 mm 1.4 km/h W 270 0 min 0.7 UV-I 204 W/m 19.4 C 3.2 km/h
21.06.2018 08:02 19.3 C 90 % 1015.9 mbar 0.00 mm 1.0 km/h W 270 0 min 0.6 UV-I 181 W/m 19.3 C 3.2 km/h
21.06.2018 08:00 19.2 C 91 % 1015.8 mbar 0.00 mm 2.0 km/h W 270 2 min 0.6 UV-I 294 W/m 19.2 C 3.2 km/h
21.06.2018 07:58 19.1 C 91 % 1015.8 mbar 0.00 mm 1.0 km/h W 270 2 min 0.6 UV-I 301 W/m 19.1 C 3.2 km/h
21.06.2018 07:56 18.9 C 91 % 1015.8 mbar 0.00 mm 0.0 km/h W 270 2 min 0.6 UV-I 288 W/m 18.9 C 0.0 km/h
21.06.2018 07:54 18.8 C 91 % 1015.9 mbar 0.00 mm 0.0 km/h W 270 2 min 0.6 UV-I 292 W/m 18.8 C 0.0 km/h
21.06.2018 07:52 18.8 C 92 % 1015.8 mbar 0.00 mm 0.0 km/h W 270 2 min 0.6 UV-I 281 W/m 18.8 C 0.0 km/h
21.06.2018 07:50 18.7 C 91 % 1015.9 mbar 0.00 mm 0.3 km/h W 270 2 min 0.5 UV-I 276 W/m 18.7 C 1.6 km/h
21.06.2018 07:48 18.6 C 92 % 1015.9 mbar 0.00 mm 0.1 km/h W 270 0 min 0.5 UV-I 244 W/m 18.6 C 1.6 km/h
21.06.2018 07:46 18.5 C 91 % 1015.8 mbar 0.00 mm 0.4 km/h W 270 0 min 0.5 UV-I 220 W/m 18.5 C 1.6 km/h
21.06.2018 07:44 18.4 C 92 % 1015.9 mbar 0.00 mm 0.0 km/h W 270 0 min 0.0 UV-I 88 W/m 18.4 C 0.0 km/h
21.06.2018 07:42 18.4 C 92 % 1015.9 mbar 0.00 mm 0.0 km/h W 270 0 min 0.0 UV-I 77 W/m 18.4 C 0.0 km/h
21.06.2018 07:40 18.4 C 92 % 1015.9 mbar 0.00 mm 0.0 km/h W 270 0 min 0.0 UV-I 67 W/m 18.4 C 0.0 km/h
21.06.2018 07:38 18.3 C 92 % 1015.8 mbar 0.00 mm 0.0 km/h W 270 0 min 0.0 UV-I 65 W/m 18.3 C 0.0 km/h
21.06.2018 07:36 18.3 C 92 % 1015.9 mbar 0.00 mm 0.0 km/h W 270 0 min 0.0 UV-I 69 W/m 18.3 C 0.0 km/h
21.06.2018 07:34 18.3 C 92 % 1015.9 mbar 0.00 mm 0.0 km/h W 270 0 min 0.0 UV-I 69 W/m 18.3 C 0.0 km/h
21.06.2018 07:32 18.3 C 92 % 1015.8 mbar 0.00 mm 0.0 km/h W 270 0 min 0.0 UV-I 63 W/m 18.3 C 0.0 km/h
21.06.2018 07:30 18.3 C 93 % 1015.8 mbar 0.00 mm 0.0 km/h W 270 0 min 0.0 UV-I 63 W/m 18.3 C 0.0 km/h
21.06.2018 07:28 18.2 C 93 % 1015.8 mbar 0.00 mm 0.0 km/h W 270 0 min 0.0 UV-I 63 W/m 18.2 C 0.0 km/h
21.06.2018 07:26 18.2 C 93 % 1015.8 mbar 0.00 mm 1.0 km/h W 270 0 min 0.0 UV-I 62 W/m 18.2 C 1.6 km/h
21.06.2018 07:24 18.2 C 93 % 1015.8 mbar 0.00 mm 2.4 km/h W 270 0 min 0.0 UV-I 58 W/m 18.2 C 3.2 km/h
21.06.2018 07:22 18.1 C 93 % 1015.8 mbar 0.00 mm 0.3 km/h W 270 0 min 0.0 UV-I 51 W/m 18.1 C 3.2 km/h
21.06.2018 07:20 18.0 C 93 % 1015.8 mbar 0.00 mm 0.0 km/h W 270 0 min 0.0 UV-I 47 W/m 18.0 C 0.0 km/h
21.06.2018 07:18 17.9 C 93 % 1015.8 mbar 0.00 mm 0.0 km/h W 270 0 min 0.0 UV-I 42 W/m 17.9 C 0.0 km/h
21.06.2018 07:16 17.8 C 93 % 1015.7 mbar 0.00 mm 0.0 km/h W 270 0 min 0.0 UV-I 44 W/m 17.8 C 0.0 km/h
21.06.2018 07:14 17.8 C 93 % 1015.7 mbar 0.00 mm 0.0 km/h W 270 0 min 0.0 UV-I 47 W/m 17.8 C 0.0 km/h
21.06.2018 07:12 17.7 C 93 % 1015.7 mbar 0.00 mm 0.0 km/h W 270 0 min 0.0 UV-I 53 W/m 17.7 C 0.0 km/h
21.06.2018 07:10 17.7 C 93 % 1015.7 mbar 0.00 mm 0.0 km/h W 270 0 min 0.0 UV-I 62 W/m 17.7 C 0.0 km/h
21.06.2018 07:08 17.6 C 93 % 1015.6 mbar 0.00 mm 0.0 km/h W 270 0 min 0.0 UV-I 63 W/m 17.6 C 0.0 km/h
21.06.2018 07:06 17.5 C 93 % 1015.7 mbar 0.00 mm 0.0 km/h W 270 0 min 0.0 UV-I 63 W/m 17.5 C 0.0 km/h
21.06.2018 07:04 17.4 C 93 % 1015.7 mbar 0.00 mm 0.0 km/h W 270 0 min 0.0 UV-I 67 W/m 17.4 C 0.0 km/h
21.06.2018 07:02 17.4 C 93 % 1015.7 mbar 0.00 mm 0.0 km/h W 270 0 min 0.0 UV-I 70 W/m 17.4 C 0.0 km/h
21.06.2018 07:00 17.4 C 93 % 1015.7 mbar 0.00 mm 0.0 km/h W 270 0 min 0.0 UV-I 69 W/m 17.4 C 0.0 km/h
21.06.2018 06:58 17.3 C 93 % 1015.6 mbar 0.00 mm 0.0 km/h W 270 0 min 0.0 UV-I 63 W/m 17.3 C 0.0 km/h
21.06.2018 06:56 17.3 C 93 % 1015.7 mbar 0.00 mm 0.0 km/h W 270 0 min 0.0 UV-I 60 W/m 17.3 C 0.0 km/h
21.06.2018 06:54 17.2 C 93 % 1015.7 mbar 0.00 mm 0.0 km/h W 270 0 min 0.0 UV-I 63 W/m 17.2 C 0.0 km/h
21.06.2018 06:52 17.2 C 93 % 1015.7 mbar 0.00 mm 0.0 km/h W 270 0 min 0.0 UV-I 90 W/m 17.2 C 0.0 km/h
21.06.2018 06:50 17.1 C 92 % 1015.6 mbar 0.00 mm 0.0 km/h W 270 0 min 0.0 UV-I 93 W/m 17.1 C 0.0 km/h
21.06.2018 06:48 17.1 C 92 % 1015.6 mbar 0.00 mm 0.0 km/h W 270 0 min 0.0 UV-I 67 W/m 17.1 C 0.0 km/h
21.06.2018 06:46 17.1 C 92 % 1015.6 mbar 0.00 mm 0.0 km/h W 270 0 min 0.0 UV-I 53 W/m 17.1 C 0.0 km/h
21.06.2018 06:44 17.0 C 92 % 1015.6 mbar 0.00 mm 0.0 km/h W 270 0 min 0.0 UV-I 62 W/m 17.0 C 0.0 km/h
21.06.2018 06:42 17.0 C 92 % 1015.5 mbar 0.00 mm 0.0 km/h W 270 0 min 0.0 UV-I 40 W/m 17.0 C 0.0 km/h
21.06.2018 06:40 17.0 C 93 % 1015.6 mbar 0.00 mm 0.8 km/h W 270 0 min 0.0 UV-I 37 W/m 17.0 C 1.6 km/h
21.06.2018 06:38 16.9 C 93 % 1015.5 mbar 0.00 mm 0.0 km/h W 270 0 min 0.0 UV-I 33 W/m 16.9 C 0.0 km/h
21.06.2018 06:36 16.9 C 93 % 1015.5 mbar 0.00 mm 0.0 km/h W 270 0 min 0.0 UV-I 33 W/m 16.9 C 0.0 km/h
21.06.2018 06:34 16.9 C 92 % 1015.5 mbar 0.00 mm 2.1 km/h W 270 0 min 0.0 UV-I 33 W/m 16.9 C 3.2 km/h
21.06.2018 06:32 16.8 C 92 % 1015.5 mbar 0.00 mm 0.6 km/h W 270 0 min 0.0 UV-I 32 W/m 16.8 C 3.2 km/h
21.06.2018 06:30 16.8 C 92 % 1015.5 mbar 0.00 mm 0.0 km/h W 270 0 min 0.0 UV-I 32 W/m 16.8 C 0.0 km/h
21.06.2018 06:28 16.8 C 92 % 1015.5 mbar 0.00 mm 0.0 km/h W 270 0 min 0.0 UV-I 30 W/m 16.8 C 0.0 km/h
21.06.2018 06:26 16.8 C 92 % 1015.5 mbar 0.00 mm 0.0 km/h W 270 0 min 0.0 UV-I 30 W/m 16.8 C 0.0 km/h
21.06.2018 06:24 16.7 C 92 % 1015.5 mbar 0.00 mm 0.0 km/h W 270 0 min 0.0 UV-I 28 W/m 16.7 C 0.0 km/h
21.06.2018 06:22 16.7 C 92 % 1015.5 mbar 0.00 mm 1.5 km/h W 270 0 min 0.0 UV-I 26 W/m 16.7 C 3.2 km/h
21.06.2018 06:20 16.7 C 92 % 1015.4 mbar 0.00 mm 1.4 km/h W 270 0 min 0.0 UV-I 25 W/m 16.7 C 3.2 km/h
21.06.2018 06:18 16.7 C 92 % 1015.4 mbar 0.00 mm 3.1 km/h W 270 0 min 0.0 UV-I 25 W/m 16.7 C 4.8 km/h
21.06.2018 06:16 16.6 C 92 % 1015.4 mbar 0.00 mm 3.9 km/h W 270 0 min 0.0 UV-I 23 W/m 16.6 C 4.8 km/h
21.06.2018 06:14 16.6 C 92 % 1015.4 mbar 0.00 mm 2.0 km/h W 270 0 min 0.0 UV-I 23 W/m 16.6 C 3.2 km/h
21.06.2018 06:12 16.6 C 92 % 1015.4 mbar 0.00 mm 1.7 km/h W 270 0 min 0.0 UV-I 21 W/m 16.6 C 3.2 km/h
21.06.2018 06:10 16.6 C 92 % 1015.4 mbar 0.00 mm 1.9 km/h W 270 0 min 0.0 UV-I 19 W/m 16.6 C 3.2 km/h
21.06.2018 06:08 16.6 C 92 % 1015.5 mbar 0.00 mm 2.3 km/h W 270 0 min 0.0 UV-I 19 W/m 16.6 C 3.2 km/h
21.06.2018 06:06 16.6 C 92 % 1015.5 mbar 0.00 mm 1.6 km/h W 270 0 min 0.0 UV-I 19 W/m 16.6 C 4.8 km/h
21.06.2018 06:04 16.6 C 91 % 1015.5 mbar 0.00 mm 4.0 km/h W 270 0 min 0.0 UV-I 18 W/m 16.6 C 6.4 km/h
21.06.2018 06:02 16.6 C 91 % 1015.5 mbar 0.00 mm 0.3 km/h W 270 0 min 0.0 UV-I 18 W/m 16.6 C 1.6 km/h
21.06.2018 06:00 16.6 C 91 % 1015.5 mbar 0.00 mm 0.0 km/h W 270 0 min 0.0 UV-I 16 W/m 16.6 C 0.0 km/h
21.06.2018 05:58 16.6 C 91 % 1015.5 mbar 0.00 mm 1.2 km/h W 270 0 min 0.0 UV-I 14 W/m 16.6 C 3.2 km/h
21.06.2018 05:56 16.6 C 91 % 1015.5 mbar 0.00 mm 3.7 km/h W 270 0 min 0.0 UV-I 14 W/m 16.6 C 4.8 km/h
21.06.2018 05:54 16.7 C 91 % 1015.5 mbar 0.00 mm 1.2 km/h W 270 0 min 0.0 UV-I 12 W/m 16.7 C 3.2 km/h
21.06.2018 05:52 16.7 C 91 % 1015.5 mbar 0.00 mm 1.1 km/h W 270 0 min 0.0 UV-I 11 W/m 16.7 C 3.2 km/h
21.06.2018 05:50 16.7 C 91 % 1015.5 mbar 0.00 mm 0.9 km/h W 270 0 min 0.0 UV-I 11 W/m 16.7 C 3.2 km/h
21.06.2018 05:48 16.7 C 91 % 1015.5 mbar 0.00 mm 0.9 km/h W 270 0 min 0.0 UV-I 9 W/m 16.7 C 3.2 km/h
21.06.2018 05:46 16.7 C 91 % 1015.5 mbar 0.00 mm 3.0 km/h W 270 0 min 0.0 UV-I 9 W/m 16.7 C 4.8 km/h
21.06.2018 05:44 16.7 C 91 % 1015.5 mbar 0.00 mm 3.3 km/h W 270 0 min 0.0 UV-I 7 W/m 16.7 C 4.8 km/h
21.06.2018 05:42 16.7 C 91 % 1015.5 mbar 0.00 mm 3.3 km/h W 270 0 min 0.0 UV-I 7 W/m 16.7 C 4.8 km/h
21.06.2018 05:40 16.7 C 91 % 1015.5 mbar 0.00 mm 0.4 km/h W 270 0 min 0.0 UV-I 5 W/m 16.7 C 3.2 km/h
21.06.2018 05:38 16.8 C 91 % 1015.6 mbar 0.00 mm 0.4 km/h W 270 0 min 0.0 UV-I 5 W/m 16.8 C 1.6 km/h
21.06.2018 05:36 16.8 C 90 % 1015.6 mbar 0.00 mm 0.8 km/h W 270 0 min 0.0 UV-I 5 W/m 16.8 C 1.6 km/h
21.06.2018 05:34 16.8 C 90 % 1015.5 mbar 0.00 mm 0.8 km/h W 270 0 min 0.0 UV-I 0 W/m 16.8 C 1.6 km/h
21.06.2018 05:32 16.8 C 90 % 1015.6 mbar 0.00 mm 0.0 km/h W 270 0 min 0.0 UV-I 0 W/m 16.8 C 0.0 km/h
21.06.2018 05:30 16.8 C 90 % 1015.6 mbar 0.00 mm 0.0 km/h W 270 0 min 0.0 UV-I 0 W/m 16.8 C 0.0 km/h
21.06.2018 05:28 16.8 C 91 % 1015.6 mbar 0.00 mm 0.0 km/h W 270 0 min 0.0 UV-I 0 W/m 16.8 C 0.0 km/h
21.06.2018 05:26 16.8 C 91 % 1015.5 mbar 0.00 mm 1.1 km/h W 270 0 min 0.0 UV-I 0 W/m 16.8 C 1.6 km/h
21.06.2018 05:24 16.8 C 91 % 1015.5 mbar 0.00 mm 0.4 km/h W 270 0 min 0.0 UV-I 0 W/m 16.8 C 1.6 km/h
21.06.2018 05:22 16.8 C 91 % 1015.5 mbar 0.00 mm 1.8 km/h W 270 0 min 0.0 UV-I 0 W/m 16.8 C 4.8 km/h
21.06.2018 05:20 16.8 C 91 % 1015.5 mbar 0.00 mm 1.7 km/h W 270 0 min 0.0 UV-I 0 W/m 16.8 C 3.2 km/h
21.06.2018 05:18 16.8 C 91 % 1015.5 mbar 0.00 mm 1.6 km/h W 270 0 min 0.0 UV-I 0 W/m 16.8 C 3.2 km/h
21.06.2018 05:16 16.9 C 91 % 1015.5 mbar 0.00 mm 3.0 km/h W 270 0 min 0.0 UV-I 0 W/m 16.9 C 4.8 km/h
21.06.2018 05:14 16.8 C 90 % 1015.5 mbar 0.00 mm 2.6 km/h W 270 0 min 0.0 UV-I 0 W/m 16.8 C 3.2 km/h
21.06.2018 05:12 16.9 C 90 % 1015.6 mbar 0.00 mm 0.2 km/h W 270 0 min 0.0 UV-I 0 W/m 16.9 C 1.6 km/h
21.06.2018 05:10 16.9 C 90 % 1015.5 mbar 0.00 mm 2.9 km/h W 270 0 min 0.0 UV-I 0 W/m 16.9 C 4.8 km/h
21.06.2018 05:08 16.9 C 90 % 1015.5 mbar 0.00 mm 1.2 km/h W 270 0 min 0.0 UV-I 0 W/m 16.9 C 4.8 km/h
21.06.2018 05:06 16.9 C 90 % 1015.5 mbar 0.00 mm 0.0 km/h W 270 0 min 0.0 UV-I 0 W/m 16.9 C 0.0 km/h
21.06.2018 05:04 16.9 C 90 % 1015.6 mbar 0.00 mm 0.0 km/h W 270 0 min 0.0 UV-I 0 W/m 16.9 C 0.0 km/h
21.06.2018 05:02 16.9 C 90 % 1015.6 mbar 0.00 mm 0.0 km/h W 270 0 min 0.0 UV-I 0 W/m 16.9 C 0.0 km/h
21.06.2018 05:00 16.9 C 90 % 1015.6 mbar 0.00 mm 0.0 km/h W 270 0 min 0.0 UV-I 0 W/m 16.9 C 0.0 km/h
21.06.2018 04:58 16.9 C 90 % 1015.6 mbar 0.00 mm 0.0 km/h W 270 0 min 0.0 UV-I 0 W/m 16.9 C 0.0 km/h
21.06.2018 04:56 16.9 C 90 % 1015.6 mbar 0.00 mm 0.0 km/h W 270 0 min 0.0 UV-I 0 W/m 16.9 C 0.0 km/h
21.06.2018 04:54 16.9 C 90 % 1015.6 mbar 0.00 mm 0.0 km/h W 270 0 min 0.0 UV-I 0 W/m 16.9 C 0.0 km/h
21.06.2018 04:52 16.9 C 90 % 1015.6 mbar 0.00 mm 0.0 km/h W 270 0 min 0.0 UV-I 0 W/m 16.9 C 0.0 km/h
21.06.2018 04:50 17.0 C 90 % 1015.6 mbar 0.00 mm 0.0 km/h W 270 0 min 0.0 UV-I 0 W/m 17.0 C 0.0 km/h
21.06.2018 04:48 17.0 C 90 % 1015.6 mbar 0.00 mm 0.0 km/h W 270 0 min 0.0 UV-I 0 W/m 17.0 C 0.0 km/h
21.06.2018 04:46 17.0 C 90 % 1015.6 mbar 0.00 mm 0.0 km/h W 270 0 min 0.0 UV-I 0 W/m 17.0 C 0.0 km/h
21.06.2018 04:44 17.0 C 90 % 1015.7 mbar 0.00 mm 0.0 km/h W 270 0 min 0.0 UV-I 0 W/m 17.0 C 0.0 km/h
21.06.2018 04:42 17.0 C 90 % 1015.7 mbar 0.00 mm 0.0 km/h W 270 0 min 0.0 UV-I 0 W/m 17.0 C 0.0 km/h
21.06.2018 04:40 17.0 C 90 % 1015.6 mbar 0.00 mm 0.0 km/h W 270 0 min 0.0 UV-I 0 W/m 17.0 C 0.0 km/h
21.06.2018 04:38 17.1 C 90 % 1015.6 mbar 0.00 mm 0.0 km/h W 270 0 min 0.0 UV-I 0 W/m 17.1 C 0.0 km/h
21.06.2018 04:36 17.1 C 90 % 1015.6 mbar 0.00 mm 0.0 km/h W 270 0 min 0.0 UV-I 0 W/m 17.1 C 0.0 km/h
21.06.2018 04:34 17.1 C 90 % 1015.6 mbar 0.00 mm 0.0 km/h W 270 0 min 0.0 UV-I 0 W/m 17.1 C 0.0 km/h
21.06.2018 04:32 17.1 C 90 % 1015.6 mbar 0.00 mm 0.0 km/h W 270 0 min 0.0 UV-I 0 W/m 17.1 C 0.0 km/h
21.06.2018 04:30 17.1 C 90 % 1015.7 mbar 0.00 mm 0.4 km/h W 270 0 min 0.0 UV-I 0 W/m 17.1 C 1.6 km/h
21.06.2018 04:28 17.1 C 90 % 1015.7 mbar 0.00 mm 0.1 km/h W 270 0 min 0.0 UV-I 0 W/m 17.1 C 1.6 km/h
21.06.2018 04:26 17.1 C 90 % 1015.6 mbar 0.00 mm 0.7 km/h W 270 0 min 0.0 UV-I 0 W/m 17.1 C 3.2 km/h
21.06.2018 04:24 17.1 C 89 % 1015.7 mbar 0.00 mm 0.0 km/h W 270 0 min 0.0 UV-I 0 W/m 17.1 C 1.6 km/h
21.06.2018 04:22 17.1 C 89 % 1015.7 mbar 0.00 mm 0.3 km/h W 270 0 min 0.0 UV-I 0 W/m 17.1 C 1.6 km/h
21.06.2018 04:20 17.1 C 89 % 1015.7 mbar 0.00 mm 0.0 km/h W 270 0 min 0.0 UV-I 0 W/m 17.1 C 0.0 km/h
21.06.2018 04:18 17.1 C 89 % 1015.8 mbar 0.00 mm 0.2 km/h W 270 0 min 0.0 UV-I 0 W/m 17.1 C 1.6 km/h
21.06.2018 04:16 17.2 C 89 % 1015.8 mbar 0.00 mm 0.7 km/h W 270 0 min 0.0 UV-I 0 W/m 17.2 C 3.2 km/h
21.06.2018 04:14 17.2 C 89 % 1015.8 mbar 0.00 mm 0.1 km/h W 270 0 min 0.0 UV-I 0 W/m 17.2 C 1.6 km/h
21.06.2018 04:12 17.2 C 89 % 1015.8 mbar 0.00 mm 1.2 km/h W 270 0 min 0.0 UV-I 0 W/m 17.2 C 3.2 km/h
21.06.2018 04:10 17.2 C 89 % 1015.8 mbar 0.00 mm 2.9 km/h W 270 0 min 0.0 UV-I 0 W/m 17.2 C 4.8 km/h
21.06.2018 04:08 17.2 C 89 % 1015.9 mbar 0.00 mm 3.0 km/h W 270 0 min 0.0 UV-I 0 W/m 17.2 C 4.8 km/h
21.06.2018 04:06 17.2 C 89 % 1015.8 mbar 0.00 mm 0.5 km/h W 270 0 min 0.0 UV-I 0 W/m 17.2 C 3.2 km/h
21.06.2018 04:04 17.2 C 89 % 1015.9 mbar 0.00 mm 2.7 km/h W 270 0 min 0.0 UV-I 0 W/m 17.2 C 3.2 km/h
21.06.2018 04:02 17.2 C 89 % 1015.9 mbar 0.00 mm 2.5 km/h W 270 0 min 0.0 UV-I 0 W/m 17.2 C 3.2 km/h
21.06.2018 04:00 17.2 C 89 % 1015.9 mbar 0.00 mm 2.7 km/h W 270 0 min 0.0 UV-I 0 W/m 17.2 C 3.2 km/h
21.06.2018 03:58 17.2 C 89 % 1015.9 mbar 0.00 mm 2.7 km/h W 270 0 min 0.0 UV-I 0 W/m 17.2 C 3.2 km/h
21.06.2018 03:56 17.3 C 89 % 1015.9 mbar 0.00 mm 1.5 km/h W 270 0 min 0.0 UV-I 0 W/m 17.3 C 3.2 km/h
21.06.2018 03:54 17.3 C 89 % 1015.9 mbar 0.00 mm 0.0 km/h W 270 0 min 0.0 UV-I 0 W/m 17.3 C 1.6 km/h
21.06.2018 03:52 17.3 C 89 % 1015.8 mbar 0.00 mm 1.0 km/h W 270 0 min 0.0 UV-I 0 W/m 17.3 C 3.2 km/h
21.06.2018 03:50 17.3 C 89 % 1015.9 mbar 0.00 mm 1.7 km/h W 270 0 min 0.0 UV-I 0 W/m 17.3 C 3.2 km/h
21.06.2018 03:48 17.3 C 89 % 1015.9 mbar 0.00 mm 0.0 km/h W 270 0 min 0.0 UV-I 0 W/m 17.3 C 0.0 km/h
21.06.2018 03:46 17.4 C 89 % 1015.9 mbar 0.00 mm 0.0 km/h W 270 0 min 0.0 UV-I 0 W/m 17.4 C 1.6 km/h
21.06.2018 03:44 17.4 C 89 % 1015.9 mbar 0.00 mm 0.2 km/h W 270 0 min 0.0 UV-I 0 W/m 17.4 C 1.6 km/h
21.06.2018 03:42 17.4 C 89 % 1015.8 mbar 0.00 mm 0.0 km/h W 270 0 min 0.0 UV-I 0 W/m 17.4 C 0.0 km/h
21.06.2018 03:40 17.4 C 89 % 1015.9 mbar 0.00 mm 1.0 km/h W 270 0 min 0.0 UV-I 0 W/m 17.4 C 3.2 km/h
21.06.2018 03:38 17.4 C 89 % 1015.9 mbar 0.00 mm 1.6 km/h W 270 0 min 0.0 UV-I 0 W/m 17.4 C 3.2 km/h
21.06.2018 03:36 17.4 C 89 % 1015.9 mbar 0.00 mm 1.8 km/h W 270 0 min 0.0 UV-I 0 W/m 17.4 C 3.2 km/h
21.06.2018 03:34 17.4 C 89 % 1015.9 mbar 0.00 mm 3.9 km/h W 270 0 min 0.0 UV-I 0 W/m 17.4 C 4.8 km/h
21.06.2018 03:32 17.4 C 88 % 1015.9 mbar 0.00 mm 3.3 km/h W 270 0 min 0.0 UV-I 0 W/m 17.4 C 4.8 km/h
21.06.2018 03:30 17.5 C 88 % 1015.9 mbar 0.00 mm 3.1 km/h W 270 0 min 0.0 UV-I 0 W/m 17.5 C 4.8 km/h
21.06.2018 03:28 17.6 C 88 % 1015.9 mbar 0.00 mm 2.9 km/h W 271 0 min 0.0 UV-I 0 W/m 17.6 C 3.2 km/h
21.06.2018 03:26 17.6 C 89 % 1015.9 mbar 0.00 mm 1.6 km/h W 270 0 min 0.0 UV-I 0 W/m 17.6 C 3.2 km/h
21.06.2018 03:24 17.6 C 89 % 1015.9 mbar 0.00 mm 3.9 km/h W 270 0 min 0.0 UV-I 0 W/m 17.6 C 4.8 km/h
21.06.2018 03:22 17.6 C 88 % 1015.9 mbar 0.00 mm 4.1 km/h W 270 0 min 0.0 UV-I 0 W/m 17.6 C 4.8 km/h
21.06.2018 03:20 17.6 C 88 % 1015.9 mbar 0.00 mm 1.1 km/h W 270 0 min 0.0 UV-I 0 W/m 17.6 C 3.2 km/h
21.06.2018 03:18 17.7 C 88 % 1015.9 mbar 0.00 mm 2.3 km/h W 270 0 min 0.0 UV-I 0 W/m 17.7 C 3.2 km/h
21.06.2018 03:16 17.7 C 88 % 1015.9 mbar 0.00 mm 0.8 km/h W 270 0 min 0.0 UV-I 0 W/m 17.7 C 3.2 km/h
21.06.2018 03:14 17.7 C 88 % 1015.9 mbar 0.00 mm 0.0 km/h W 270 0 min 0.0 UV-I 0 W/m 17.7 C 0.0 km/h
21.06.2018 03:12 17.7 C 88 % 1015.9 mbar 0.00 mm 0.0 km/h W 270 0 min 0.0 UV-I 0 W/m 17.7 C 0.0 km/h
21.06.2018 03:10 17.7 C 88 % 1016.0 mbar 0.00 mm 0.2 km/h W 270 0 min 0.0 UV-I 0 W/m 17.7 C 1.6 km/h
21.06.2018 03:08 17.7 C 88 % 1016.0 mbar 0.00 mm 1.8 km/h W 270 0 min 0.0 UV-I 0 W/m 17.7 C 3.2 km/h
21.06.2018 03:06 17.8 C 88 % 1015.9 mbar 0.00 mm 2.1 km/h W 270 0 min 0.0 UV-I 0 W/m 17.8 C 3.2 km/h
21.06.2018 03:04 17.8 C 88 % 1016.0 mbar 0.00 mm 0.0 km/h W 270 0 min 0.0 UV-I 0 W/m 17.8 C 0.0 km/h
21.06.2018 03:02 17.8 C 88 % 1015.9 mbar 0.00 mm 1.0 km/h W 270 0 min 0.0 UV-I 0 W/m 17.8 C 1.6 km/h
21.06.2018 03:00 17.8 C 88 % 1015.9 mbar 0.00 mm 0.0 km/h W 271 0 min 0.0 UV-I 0 W/m 17.8 C 0.0 km/h
21.06.2018 02:58 17.8 C 88 % 1016.1 mbar 0.00 mm 0.0 km/h W 270 0 min 0.0 UV-I 0 W/m 17.8 C 0.0 km/h
21.06.2018 02:56 17.8 C 88 % 1016.1 mbar 0.00 mm 0.4 km/h W 270 0 min 0.0 UV-I 0 W/m 17.8 C 1.6 km/h
21.06.2018 02:54 17.8 C 88 % 1016.1 mbar 0.00 mm 0.9 km/h W 270 0 min 0.0 UV-I 0 W/m 17.8 C 3.2 km/h
21.06.2018 02:52 17.8 C 88 % 1016.0 mbar 0.00 mm 0.7 km/h W 270 0 min 0.0 UV-I 0 W/m 17.8 C 1.6 km/h
21.06.2018 02:50 17.8 C 88 % 1016.0 mbar 0.00 mm 0.0 km/h W 270 0 min 0.0 UV-I 0 W/m 17.8 C 0.0 km/h
21.06.2018 02:48 17.8 C 88 % 1016.0 mbar 0.00 mm 0.0 km/h W 270 0 min 0.0 UV-I 0 W/m 17.8 C 0.0 km/h
21.06.2018 02:46 17.8 C 88 % 1016.1 mbar 0.00 mm 0.0 km/h W 270 0 min 0.0 UV-I 0 W/m 17.8 C 0.0 km/h
21.06.2018 02:44 17.8 C 88 % 1016.0 mbar 0.00 mm 0.3 km/h W 270 0 min 0.0 UV-I 0 W/m 17.8 C 3.2 km/h
21.06.2018 02:42 17.7 C 88 % 1016.0 mbar 0.00 mm 3.7 km/h W 270 0 min 0.0 UV-I 0 W/m 17.7 C 6.4 km/h
21.06.2018 02:40 17.7 C 88 % 1016.1 mbar 0.00 mm 4.1 km/h W 270 0 min 0.0 UV-I 0 W/m 17.7 C 6.4 km/h
21.06.2018 02:38 17.7 C 88 % 1016.0 mbar 0.00 mm 3.8 km/h W 268 0 min 0.0 UV-I 0 W/m 17.7 C 6.4 km/h
21.06.2018 02:36 17.7 C 88 % 1016.0 mbar 0.00 mm 2.7 km/h W 268 0 min 0.0 UV-I 0 W/m 17.7 C 4.8 km/h
21.06.2018 02:34 17.8 C 88 % 1016.1 mbar 0.00 mm 3.4 km/h W 267 0 min 0.0 UV-I 0 W/m 17.8 C 4.8 km/h
21.06.2018 02:32 17.8 C 88 % 1016.1 mbar 0.00 mm 2.1 km/h W 267 0 min 0.0 UV-I 0 W/m 17.8 C 3.2 km/h
21.06.2018 02:30 17.8 C 88 % 1016.1 mbar 0.00 mm 2.7 km/h W 267 0 min 0.0 UV-I 0 W/m 17.8 C 3.2 km/h
21.06.2018 02:28 17.9 C 88 % 1016.1 mbar 0.00 mm 3.6 km/h W 267 0 min 0.0 UV-I 0 W/m 17.9 C 4.8 km/h
21.06.2018 02:26 17.9 C 88 % 1016.1 mbar 0.00 mm 2.8 km/h W 267 0 min 0.0 UV-I 0 W/m 17.9 C 3.2 km/h
21.06.2018 02:24 17.9 C 88 % 1016.1 mbar 0.00 mm 1.6 km/h W 267 0 min 0.0 UV-I 0 W/m 17.9 C 3.2 km/h
21.06.2018 02:22 17.9 C 88 % 1016.1 mbar 0.00 mm 1.0 km/h W 267 0 min 0.0 UV-I 0 W/m 17.9 C 3.2 km/h
21.06.2018 02:20 17.9 C 88 % 1016.2 mbar 0.00 mm 0.0 km/h W 267 0 min 0.0 UV-I 0 W/m 17.9 C 1.6 km/h
21.06.2018 02:18 17.9 C 88 % 1016.2 mbar 0.00 mm 1.1 km/h W 267 0 min 0.0 UV-I 0 W/m 17.9 C 3.2 km/h
21.06.2018 02:16 17.9 C 88 % 1016.2 mbar 0.00 mm 1.8 km/h W 267 0 min 0.0 UV-I 0 W/m 17.9 C 3.2 km/h
21.06.2018 02:14 18.0 C 88 % 1016.2 mbar 0.00 mm 2.2 km/h W 267 0 min 0.0 UV-I 0 W/m 18.0 C 3.2 km/h
21.06.2018 02:12 17.9 C 88 % 1016.2 mbar 0.00 mm 1.8 km/h W 267 0 min 0.0 UV-I 0 W/m 17.9 C 3.2 km/h
21.06.2018 02:10 18.0 C 88 % 1016.2 mbar 0.00 mm 1.1 km/h W 267 0 min 0.0 UV-I 0 W/m 18.0 C 3.2 km/h
21.06.2018 02:08 18.0 C 88 % 1016.2 mbar 0.00 mm 0.0 km/h W 267 0 min 0.0 UV-I 0 W/m 18.0 C 0.0 km/h
21.06.2018 02:06 18.0 C 88 % 1016.2 mbar 0.00 mm 2.6 km/h W 267 0 min 0.0 UV-I 0 W/m 18.0 C 4.8 km/h
21.06.2018 02:04 18.0 C 88 % 1016.2 mbar 0.00 mm 3.9 km/h W 267 0 min 0.0 UV-I 0 W/m 18.0 C 4.8 km/h
21.06.2018 02:02 18.0 C 88 % 1016.2 mbar 0.00 mm 2.8 km/h W 267 0 min 0.0 UV-I 0 W/m 18.0 C 4.8 km/h
21.06.2018 02:00 18.1 C 88 % 1016.3 mbar 0.00 mm 3.1 km/h W 267 0 min 0.0 UV-I 0 W/m 18.1 C 4.8 km/h
21.06.2018 01:58 18.1 C 88 % 1016.3 mbar 0.00 mm 0.8 km/h W 267 0 min 0.0 UV-I 0 W/m 18.1 C 3.2 km/h
21.06.2018 01:56 18.1 C 88 % 1016.2 mbar 0.00 mm 0.1 km/h W 267 0 min 0.0 UV-I 0 W/m 18.1 C 1.6 km/h
21.06.2018 01:54 18.1 C 88 % 1016.4 mbar 0.00 mm 0.0 km/h W 267 0 min 0.0 UV-I 0 W/m 18.1 C 1.6 km/h
21.06.2018 01:52 18.1 C 88 % 1016.3 mbar 0.00 mm 0.0 km/h W 267 0 min 0.0 UV-I 0 W/m 18.1 C 0.0 km/h
21.06.2018 01:50 18.1 C 87 % 1016.4 mbar 0.00 mm 1.2 km/h W 267 0 min 0.0 UV-I 0 W/m 18.1 C 3.2 km/h
21.06.2018 01:48 18.1 C 87 % 1016.3 mbar 0.00 mm 1.3 km/h W 267 0 min 0.0 UV-I 0 W/m 18.1 C 3.2 km/h
21.06.2018 01:46 18.2 C 87 % 1016.4 mbar 0.00 mm 2.4 km/h W 267 0 min 0.0 UV-I 0 W/m 18.2 C 3.2 km/h
21.06.2018 01:44 18.2 C 87 % 1016.4 mbar 0.00 mm 2.7 km/h W 267 0 min 0.0 UV-I 0 W/m 18.2 C 4.8 km/h
21.06.2018 01:42 18.2 C 87 % 1016.4 mbar 0.00 mm 0.9 km/h W 267 0 min 0.0 UV-I 0 W/m 18.2 C 3.2 km/h
21.06.2018 01:40 18.2 C 87 % 1016.4 mbar 0.00 mm 0.0 km/h W 267 0 min 0.0 UV-I 0 W/m 18.2 C 0.0 km/h
21.06.2018 01:38 18.2 C 87 % 1016.4 mbar 0.00 mm 0.0 km/h W 267 0 min 0.0 UV-I 0 W/m 18.2 C 0.0 km/h
21.06.2018 01:36 18.3 C 87 % 1016.4 mbar 0.00 mm 0.1 km/h W 267 0 min 0.0 UV-I 0 W/m 18.3 C 1.6 km/h
21.06.2018 01:34 18.3 C 87 % 1016.4 mbar 0.00 mm 0.0 km/h W 267 0 min 0.0 UV-I 0 W/m 18.3 C 0.0 km/h
21.06.2018 01:32 18.3 C 87 % 1016.4 mbar 0.00 mm 0.0 km/h W 267 0 min 0.0 UV-I 0 W/m 18.3 C 0.0 km/h
21.06.2018 01:30 18.3 C 87 % 1016.4 mbar 0.00 mm 0.0 km/h W 267 0 min 0.0 UV-I 0 W/m 18.3 C 0.0 km/h
21.06.2018 01:28 18.3 C 87 % 1016.4 mbar 0.00 mm 0.0 km/h W 267 0 min 0.0 UV-I 0 W/m 18.3 C 0.0 km/h
21.06.2018 01:26 18.3 C 87 % 1016.4 mbar 0.00 mm 0.0 km/h W 267 0 min 0.0 UV-I 0 W/m 18.3 C 0.0 km/h
21.06.2018 01:24 18.3 C 87 % 1016.3 mbar 0.00 mm 2.3 km/h W 267 0 min 0.0 UV-I 0 W/m 18.3 C 3.2 km/h
21.06.2018 01:22 18.4 C 87 % 1016.4 mbar 0.00 mm 3.2 km/h W 267 0 min 0.0 UV-I 0 W/m 18.4 C 4.8 km/h
21.06.2018 01:20 18.4 C 87 % 1016.4 mbar 0.00 mm 3.8 km/h W 267 0 min 0.0 UV-I 0 W/m 18.4 C 4.8 km/h
21.06.2018 01:18 18.4 C 87 % 1016.4 mbar 0.00 mm 3.6 km/h W 267 0 min 0.0 UV-I 0 W/m 18.4 C 4.8 km/h
21.06.2018 01:16 18.4 C 87 % 1016.4 mbar 0.00 mm 2.3 km/h W 267 0 min 0.0 UV-I 0 W/m 18.4 C 3.2 km/h
21.06.2018 01:14 18.5 C 87 % 1016.4 mbar 0.00 mm 0.5 km/h W 267 0 min 0.0 UV-I 0 W/m 18.5 C 3.2 km/h
21.06.2018 01:12 18.5 C 86 % 1016.4 mbar 0.00 mm 0.9 km/h W 267 0 min 0.0 UV-I 0 W/m 18.5 C 3.2 km/h
21.06.2018 01:10 18.5 C 86 % 1016.4 mbar 0.00 mm 0.9 km/h W 267 0 min 0.0 UV-I 0 W/m 18.5 C 3.2 km/h
21.06.2018 01:08 18.6 C 86 % 1016.4 mbar 0.00 mm 0.0 km/h W 267 0 min 0.0 UV-I 0 W/m 18.6 C 0.0 km/h
21.06.2018 01:06 18.6 C 86 % 1016.5 mbar 0.00 mm 0.0 km/h W 267 0 min 0.0 UV-I 0 W/m 18.6 C 0.0 km/h
21.06.2018 01:04 18.6 C 86 % 1016.5 mbar 0.00 mm 0.0 km/h W 267 0 min 0.0 UV-I 0 W/m 18.6 C 0.0 km/h
21.06.2018 01:02 18.6 C 87 % 1016.5 mbar 0.00 mm 1.0 km/h W 267 0 min 0.0 UV-I 0 W/m 18.6 C 3.2 km/h
21.06.2018 01:00 18.6 C 86 % 1016.5 mbar 0.00 mm 0.4 km/h W 267 0 min 0.0 UV-I 0 W/m 18.6 C 1.6 km/h
21.06.2018 00:58 18.7 C 86 % 1016.5 mbar 0.00 mm 0.4 km/h W 267 0 min 0.0 UV-I 0 W/m 18.7 C 1.6 km/h
21.06.2018 00:56 18.7 C 86 % 1016.5 mbar 0.00 mm 2.9 km/h W 267 0 min 0.0 UV-I 0 W/m 18.7 C 4.8 km/h
21.06.2018 00:54 18.7 C 86 % 1016.5 mbar 0.00 mm 3.7 km/h W 267 0 min 0.0 UV-I 0 W/m 18.7 C 4.8 km/h
21.06.2018 00:52 18.8 C 86 % 1016.6 mbar 0.00 mm 1.4 km/h W 268 0 min 0.0 UV-I 0 W/m 18.8 C 4.8 km/h
21.06.2018 00:50 18.8 C 86 % 1016.5 mbar 0.00 mm 0.0 km/h W 265 0 min 0.0 UV-I 0 W/m 18.8 C 0.0 km/h
21.06.2018 00:48 18.8 C 86 % 1016.5 mbar 0.00 mm 0.0 km/h W 265 0 min 0.0 UV-I 0 W/m 18.8 C 0.0 km/h
21.06.2018 00:46 18.9 C 86 % 1016.5 mbar 0.00 mm 0.0 km/h W 265 0 min 0.0 UV-I 0 W/m 18.9 C 0.0 km/h
21.06.2018 00:44 18.9 C 85 % 1016.5 mbar 0.00 mm 0.0 km/h W 265 0 min 0.0 UV-I 0 W/m 18.9 C 0.0 km/h
21.06.2018 00:42 18.9 C 85 % 1016.5 mbar 0.00 mm 0.0 km/h W 265 0 min 0.0 UV-I 0 W/m 18.9 C 0.0 km/h
21.06.2018 00:40 19.0 C 85 % 1016.5 mbar 0.00 mm 0.0 km/h W 265 0 min 0.0 UV-I 0 W/m 19.0 C 0.0 km/h
21.06.2018 00:38 19.0 C 85 % 1016.6 mbar 0.00 mm 0.0 km/h W 265 0 min 0.0 UV-I 0 W/m 19.0 C 0.0 km/h
21.06.2018 00:36 19.0 C 85 % 1016.6 mbar 0.00 mm 0.0 km/h W 265 0 min 0.0 UV-I 0 W/m 19.0 C 0.0 km/h
21.06.2018 00:34 19.1 C 85 % 1016.6 mbar 0.00 mm 0.0 km/h W 265 0 min 0.0 UV-I 0 W/m 19.1 C 0.0 km/h
21.06.2018 00:32 19.1 C 85 % 1016.6 mbar 0.00 mm 0.0 km/h W 265 0 min 0.0 UV-I 0 W/m 19.1 C 0.0 km/h
21.06.2018 00:30 19.1 C 85 % 1016.6 mbar 0.00 mm 0.0 km/h W 265 0 min 0.0 UV-I 0 W/m 19.1 C 0.0 km/h
21.06.2018 00:28 19.1 C 85 % 1016.7 mbar 0.00 mm 0.0 km/h W 265 0 min 0.0 UV-I 0 W/m 19.1 C 0.0 km/h
21.06.2018 00:26 19.1 C 85 % 1016.7 mbar 0.00 mm 0.0 km/h W 265 0 min 0.0 UV-I 0 W/m 19.1 C 0.0 km/h
21.06.2018 00:24 19.1 C 85 % 1016.6 mbar 0.00 mm 0.0 km/h W 265 0 min 0.0 UV-I 0 W/m 19.1 C 0.0 km/h
21.06.2018 00:22 19.2 C 85 % 1016.7 mbar 0.00 mm 0.0 km/h W 265 0 min 0.0 UV-I 0 W/m 19.2 C 0.0 km/h
21.06.2018 00:20 19.2 C 85 % 1016.7 mbar 0.00 mm 0.0 km/h W 265 0 min 0.0 UV-I 0 W/m 19.2 C 0.0 km/h
21.06.2018 00:18 19.2 C 84 % 1016.8 mbar 0.00 mm 0.0 km/h W 265 0 min 0.0 UV-I 0 W/m 19.2 C 0.0 km/h
21.06.2018 00:16 19.2 C 84 % 1016.7 mbar 0.00 mm 0.0 km/h W 265 0 min 0.0 UV-I 0 W/m 19.2 C 0.0 km/h
21.06.2018 00:14 19.2 C 84 % 1016.8 mbar 0.00 mm 0.0 km/h W 265 0 min 0.0 UV-I 0 W/m 19.2 C 0.0 km/h
21.06.2018 00:12 19.3 C 84 % 1016.8 mbar 0.00 mm 0.0 km/h W 265 0 min 0.0 UV-I 0 W/m 19.3 C 0.0 km/h
21.06.2018 00:10 19.3 C 84 % 1016.8 mbar 0.00 mm 0.0 km/h W 265 0 min 0.0 UV-I 0 W/m 19.3 C 0.0 km/h
21.06.2018 00:08 19.3 C 84 % 1016.8 mbar 0.00 mm 0.0 km/h W 265 0 min 0.0 UV-I 0 W/m 19.3 C 0.0 km/h
21.06.2018 00:06 19.3 C 84 % 1016.9 mbar 0.00 mm 0.0 km/h W 265 0 min 0.0 UV-I 0 W/m 19.3 C 0.0 km/h
21.06.2018 00:04 19.3 C 85 % 1016.9 mbar 0.00 mm 0.0 km/h W 265 0 min 0.0 UV-I 0 W/m 19.3 C 0.0 km/h
21.06.2018 00:02 19.3 C 85 % 1016.9 mbar 0.00 mm 0.0 km/h W 265 0 min 0.0 UV-I 0 W/m 19.3 C 0.0 km/h
21.06.2018 00:00 19.3 C 85 % 1016.9 mbar 0.00 mm 0.0 km/h W 265 0 min 0.0 UV-I 0 W/m 19.3 C 0.0 km/h
20.06.2018 23:58 19.4 C 85 % 1016.9 mbar 0.00 mm 0.0 km/h W 265 0 min 0.0 UV-I 0 W/m 19.4 C 0.0 km/h
20.06.2018 23:56 19.4 C 85 % 1016.9 mbar 0.00 mm 0.0 km/h W 265 0 min 0.0 UV-I 0 W/m 19.4 C 0.0 km/h
20.06.2018 23:54 19.4 C 85 % 1016.9 mbar 0.00 mm 0.0 km/h W 265 0 min 0.0 UV-I 0 W/m 19.4 C 0.0 km/h
20.06.2018 23:52 19.4 C 84 % 1016.9 mbar 0.00 mm 0.0 km/h W 265 0 min 0.0 UV-I 0 W/m 19.4 C 0.0 km/h
20.06.2018 23:50 19.4 C 84 % 1016.9 mbar 0.00 mm 0.0 km/h W 265 0 min 0.0 UV-I 0 W/m 19.4 C 0.0 km/h
20.06.2018 23:48 19.5 C 84 % 1016.9 mbar 0.00 mm 0.0 km/h W 265 0 min 0.0 UV-I 0 W/m 19.5 C 0.0 km/h
20.06.2018 23:46 19.5 C 84 % 1016.9 mbar 0.00 mm 0.0 km/h W 265 0 min 0.0 UV-I 0 W/m 19.5 C 0.0 km/h
20.06.2018 23:44 19.6 C 84 % 1016.9 mbar 0.00 mm 0.0 km/h W 265 0 min 0.0 UV-I 0 W/m 19.6 C 0.0 km/h
20.06.2018 23:42 19.6 C 84 % 1016.9 mbar 0.00 mm 0.0 km/h W 265 0 min 0.0 UV-I 0 W/m 19.6 C 0.0 km/h
20.06.2018 23:40 19.6 C 84 % 1016.8 mbar 0.00 mm 0.0 km/h W 265 0 min 0.0 UV-I 0 W/m 19.6 C 0.0 km/h
20.06.2018 23:38 19.7 C 84 % 1016.9 mbar 0.00 mm 0.0 km/h W 265 0 min 0.0 UV-I 0 W/m 19.7 C 0.0 km/h
20.06.2018 23:36 19.7 C 84 % 1016.9 mbar 0.00 mm 0.0 km/h W 265 0 min 0.0 UV-I 0 W/m 19.7 C 0.0 km/h
20.06.2018 23:34 19.7 C 84 % 1016.9 mbar 0.00 mm 0.0 km/h W 265 0 min 0.0 UV-I 0 W/m 19.7 C 0.0 km/h
20.06.2018 23:32 19.8 C 83 % 1016.8 mbar 0.00 mm 0.0 km/h W 265 0 min 0.0 UV-I 0 W/m 19.8 C 0.0 km/h
20.06.2018 23:30 19.8 C 83 % 1016.8 mbar 0.00 mm 0.0 km/h W 265 0 min 0.0 UV-I 0 W/m 19.8 C 0.0 km/h
20.06.2018 23:28 19.8 C 83 % 1016.9 mbar 0.00 mm 0.0 km/h W 265 0 min 0.0 UV-I 0 W/m 19.8 C 0.0 km/h
20.06.2018 23:26 19.9 C 83 % 1016.9 mbar 0.00 mm 0.0 km/h W 265 0 min 0.0 UV-I 0 W/m 19.9 C 0.0 km/h
20.06.2018 23:24 19.9 C 83 % 1016.9 mbar 0.00 mm 0.0 km/h W 265 0 min 0.0 UV-I 0 W/m 19.9 C 0.0 km/h
20.06.2018 23:22 20.0 C 83 % 1016.9 mbar 0.00 mm 0.0 km/h W 265 0 min 0.0 UV-I 0 W/m 20.0 C 0.0 km/h
20.06.2018 23:20 20.1 C 82 % 1016.9 mbar 0.00 mm 0.0 km/h W 265 0 min 0.0 UV-I 0 W/m 20.1 C 0.0 km/h
20.06.2018 23:18 20.1 C 83 % 1016.9 mbar 0.00 mm 0.0 km/h W 265 0 min 0.0 UV-I 0 W/m 20.1 C 0.0 km/h
20.06.2018 23:16 20.1 C 82 % 1016.9 mbar 0.00 mm 0.0 km/h W 265 0 min 0.0 UV-I 0 W/m 20.1 C 0.0 km/h
20.06.2018 23:14 20.2 C 82 % 1016.8 mbar 0.00 mm 0.0 km/h W 265 0 min 0.0 UV-I 0 W/m 20.2 C 0.0 km/h
20.06.2018 23:12 20.2 C 82 % 1016.9 mbar 0.00 mm 0.0 km/h W 265 0 min 0.0 UV-I 0 W/m 20.2 C 0.0 km/h
20.06.2018 23:10 20.2 C 82 % 1016.9 mbar 0.00 mm 0.0 km/h W 265 0 min 0.0 UV-I 0 W/m 20.2 C 0.0 km/h
20.06.2018 23:08 20.3 C 82 % 1016.9 mbar 0.00 mm 0.0 km/h W 265 0 min 0.0 UV-I 0 W/m 20.3 C 0.0 km/h
20.06.2018 23:06 20.3 C 82 % 1016.9 mbar 0.00 mm 0.0 km/h W 265 0 min 0.0 UV-I 0 W/m 20.3 C 0.0 km/h
20.06.2018 23:04 20.3 C 82 % 1016.9 mbar 0.00 mm 0.0 km/h W 265 0 min 0.0 UV-I 0 W/m 20.3 C 0.0 km/h
20.06.2018 23:02 20.3 C 82 % 1016.9 mbar 0.00 mm 0.0 km/h W 265 0 min 0.0 UV-I 0 W/m 20.3 C 0.0 km/h
20.06.2018 23:00 20.3 C 82 % 1016.8 mbar 0.00 mm 0.0 km/h W 265 0 min 0.0 UV-I 0 W/m 20.3 C 0.0 km/h
20.06.2018 22:58 20.4 C 82 % 1016.9 mbar 0.00 mm 0.0 km/h W 265 0 min 0.0 UV-I 0 W/m 20.4 C 0.0 km/h
20.06.2018 22:56 20.4 C 81 % 1016.9 mbar 0.00 mm 0.0 km/h W 265 0 min 0.0 UV-I 0 W/m 20.4 C 0.0 km/h
20.06.2018 22:54 20.4 C 81 % 1016.9 mbar 0.00 mm 0.0 km/h W 265 0 min 0.0 UV-I 0 W/m 20.4 C 0.0 km/h
20.06.2018 22:52 20.4 C 81 % 1016.9 mbar 0.00 mm 0.0 km/h W 265 0 min 0.0 UV-I 0 W/m 20.4 C 0.0 km/h
20.06.2018 22:50 20.5 C 81 % 1016.9 mbar 0.00 mm 0.0 km/h W 265 0 min 0.0 UV-I 0 W/m 20.5 C 0.0 km/h
20.06.2018 22:48 20.6 C 81 % 1016.9 mbar 0.00 mm 0.0 km/h W 265 0 min 0.0 UV-I 0 W/m 20.6 C 0.0 km/h
20.06.2018 22:46 20.6 C 81 % 1016.9 mbar 0.00 mm 0.0 km/h W 266 0 min 0.0 UV-I 0 W/m 20.6 C 0.0 km/h
20.06.2018 22:44 20.7 C 81 % 1016.9 mbar 0.00 mm 0.0 km/h W 265 0 min 0.0 UV-I 0 W/m 20.7 C 0.0 km/h
20.06.2018 22:42 20.7 C 81 % 1016.9 mbar 0.00 mm 0.0 km/h W 268 0 min 0.0 UV-I 0 W/m 20.7 C 0.0 km/h
20.06.2018 22:40 20.8 C 80 % 1016.9 mbar 0.00 mm 0.0 km/h W-SW 255 0 min 0.0 UV-I 0 W/m 20.8 C 0.0 km/h
20.06.2018 22:38 20.9 C 81 % 1016.9 mbar 0.00 mm 0.0 km/h W-SW 248 0 min 0.0 UV-I 0 W/m 20.9 C 0.0 km/h
20.06.2018 22:36 20.9 C 81 % 1016.8 mbar 0.00 mm 0.0 km/h W-SW 248 0 min 0.0 UV-I 0 W/m 20.9 C 0.0 km/h
20.06.2018 22:34 20.9 C 81 % 1016.9 mbar 0.00 mm 0.0 km/h W-SW 248 0 min 0.0 UV-I 0 W/m 20.9 C 0.0 km/h
20.06.2018 22:32 20.9 C 81 % 1016.8 mbar 0.00 mm 0.0 km/h W-SW 248 0 min 0.0 UV-I 0 W/m 20.9 C 0.0 km/h
20.06.2018 22:30 20.9 C 81 % 1016.8 mbar 0.00 mm 0.0 km/h W-SW 248 0 min 0.0 UV-I 0 W/m 20.9 C 0.0 km/h
20.06.2018 22:28 21.0 C 80 % 1016.8 mbar 0.00 mm 0.0 km/h W-SW 248 0 min 0.0 UV-I 0 W/m 21.0 C 0.0 km/h
20.06.2018 22:26 21.0 C 80 % 1016.8 mbar 0.00 mm 0.0 km/h W-SW 248 0 min 0.0 UV-I 0 W/m 21.0 C 0.0 km/h
20.06.2018 22:24 21.1 C 80 % 1016.7 mbar 0.00 mm 0.0 km/h W-SW 248 0 min 0.0 UV-I 0 W/m 21.1 C 0.0 km/h
20.06.2018 22:22 21.1 C 80 % 1016.7 mbar 0.00 mm 0.0 km/h W-SW 248 0 min 0.0 UV-I 0 W/m 21.1 C 0.0 km/h
20.06.2018 22:20 21.1 C 80 % 1016.7 mbar 0.00 mm 0.0 km/h W-SW 248 0 min 0.0 UV-I 0 W/m 21.1 C 0.0 km/h
20.06.2018 22:18 21.2 C 80 % 1016.6 mbar 0.00 mm 0.0 km/h W-SW 248 0 min 0.0 UV-I 0 W/m 21.2 C 0.0 km/h
20.06.2018 22:16 21.2 C 80 % 1016.6 mbar 0.00 mm 0.0 km/h W-SW 248 0 min 0.0 UV-I 0 W/m 21.2 C 0.0 km/h
20.06.2018 22:14 21.3 C 80 % 1016.6 mbar 0.00 mm 0.0 km/h W-SW 248 0 min 0.0 UV-I 0 W/m 21.3 C 0.0 km/h
20.06.2018 22:12 21.3 C 80 % 1016.7 mbar 0.00 mm 0.0 km/h W-SW 248 0 min 0.0 UV-I 0 W/m 21.3 C 0.0 km/h
20.06.2018 22:10 21.4 C 79 % 1016.6 mbar 0.00 mm 0.0 km/h W-SW 248 0 min 0.0 UV-I 0 W/m 21.4 C 0.0 km/h
20.06.2018 22:08 21.4 C 79 % 1016.5 mbar 0.00 mm 0.0 km/h W-SW 248 0 min 0.0 UV-I 0 W/m 21.4 C 0.0 km/h
20.06.2018 22:06 21.6 C 79 % 1016.5 mbar 0.00 mm 0.0 km/h W-SW 248 0 min 0.0 UV-I 0 W/m 21.6 C 0.0 km/h
20.06.2018 22:04 21.6 C 79 % 1016.5 mbar 0.00 mm 0.0 km/h W-SW 248 0 min 0.0 UV-I 0 W/m 21.6 C 0.0 km/h
20.06.2018 22:02 21.7 C 79 % 1016.5 mbar 0.00 mm 0.0 km/h W-SW 248 0 min 0.0 UV-I 0 W/m 21.7 C 0.0 km/h
20.06.2018 22:00 21.8 C 79 % 1016.5 mbar 0.00 mm 0.0 km/h W-SW 248 0 min 0.0 UV-I 0 W/m 21.8 C 0.0 km/h
20.06.2018 21:58 21.8 C 78 % 1016.5 mbar 0.00 mm 0.0 km/h W-SW 248 0 min 0.0 UV-I 0 W/m 21.8 C 0.0 km/h
20.06.2018 21:56 21.9 C 78 % 1016.5 mbar 0.00 mm 0.0 km/h W-SW 248 0 min 0.0 UV-I 0 W/m 21.9 C 0.0 km/h
20.06.2018 21:54 22.1 C 78 % 1016.4 mbar 0.00 mm 0.0 km/h W-SW 248 0 min 0.0 UV-I 0 W/m 22.1 C 0.0 km/h
20.06.2018 21:52 22.2 C 78 % 1016.4 mbar 0.00 mm 0.0 km/h W-SW 248 0 min 0.0 UV-I 0 W/m 22.2 C 0.0 km/h
20.06.2018 21:50 22.3 C 77 % 1016.4 mbar 0.00 mm 0.0 km/h W-SW 248 0 min 0.0 UV-I 0 W/m 22.3 C 0.0 km/h
20.06.2018 21:48 22.4 C 77 % 1016.3 mbar 0.00 mm 0.0 km/h W-SW 248 0 min 0.0 UV-I 0 W/m 22.4 C 0.0 km/h
20.06.2018 21:46 22.4 C 77 % 1016.3 mbar 0.00 mm 0.0 km/h W-SW 248 0 min 0.0 UV-I 0 W/m 22.4 C 0.0 km/h
20.06.2018 21:44 22.4 C 76 % 1016.4 mbar 0.00 mm 0.0 km/h W-SW 248 0 min 0.0 UV-I 0 W/m 22.4 C 0.0 km/h
20.06.2018 21:42 22.6 C 76 % 1016.3 mbar 0.00 mm 0.0 km/h W-SW 248 0 min 0.0 UV-I 0 W/m 22.6 C 0.0 km/h
20.06.2018 21:40 22.6 C 76 % 1016.3 mbar 0.00 mm 0.0 km/h W-SW 248 0 min 0.0 UV-I 0 W/m 22.6 C 0.0 km/h
20.06.2018 21:38 22.6 C 76 % 1016.3 mbar 0.00 mm 0.0 km/h W-SW 248 0 min 0.0 UV-I 0 W/m 22.6 C 0.0 km/h
20.06.2018 21:36 22.7 C 76 % 1016.3 mbar 0.00 mm 0.0 km/h W-SW 248 0 min 0.0 UV-I 0 W/m 22.7 C 0.0 km/h
20.06.2018 21:34 22.8 C 75 % 1016.2 mbar 0.00 mm 0.0 km/h W-SW 248 0 min 0.0 UV-I 0 W/m 22.8 C 0.0 km/h
20.06.2018 21:32 22.8 C 76 % 1016.2 mbar 0.00 mm 0.0 km/h W-SW 248 0 min 0.0 UV-I 0 W/m 22.8 C 0.0 km/h
20.06.2018 21:30 22.9 C 76 % 1016.2 mbar 0.00 mm 0.0 km/h W-SW 248 0 min 0.0 UV-I 0 W/m 22.9 C 0.0 km/h
20.06.2018 21:28 22.9 C 76 % 1016.1 mbar 0.00 mm 0.0 km/h W-SW 248 0 min 0.0 UV-I 0 W/m 22.9 C 0.0 km/h
20.06.2018 21:26 23.0 C 75 % 1016.2 mbar 0.00 mm 0.0 km/h W-SW 248 0 min 0.0 UV-I 0 W/m 23.0 C 0.0 km/h
20.06.2018 21:24 23.1 C 75 % 1016.1 mbar 0.00 mm 0.0 km/h W-SW 248 0 min 0.0 UV-I 5 W/m 23.1 C 0.0 km/h
20.06.2018 21:22 23.2 C 75 % 1016.1 mbar 0.00 mm 0.0 km/h W-SW 248 0 min 0.0 UV-I 5 W/m 23.2 C 0.0 km/h
20.06.2018 21:20 23.2 C 75 % 1016.1 mbar 0.00 mm 0.0 km/h W-SW 248 0 min 0.0 UV-I 7 W/m 23.2 C 0.0 km/h
20.06.2018 21:18 23.2 C 75 % 1016.2 mbar 0.00 mm 0.0 km/h W-SW 248 0 min 0.0 UV-I 7 W/m 23.2 C 0.0 km/h
20.06.2018 21:16 23.3 C 74 % 1016.1 mbar 0.00 mm 0.0 km/h W-SW 248 0 min 0.0 UV-I 7 W/m 23.3 C 0.0 km/h
20.06.2018 21:14 23.3 C 74 % 1016.1 mbar 0.00 mm 0.0 km/h W-SW 248 0 min 0.0 UV-I 9 W/m 23.3 C 0.0 km/h
20.06.2018 21:12 23.4 C 75 % 1016.1 mbar 0.00 mm 0.0 km/h W-SW 247 0 min 0.0 UV-I 9 W/m 23.4 C 0.0 km/h
20.06.2018 21:10 23.5 C 74 % 1016.1 mbar 0.00 mm 0.0 km/h W-SW 247 0 min 0.0 UV-I 9 W/m 23.5 C 0.0 km/h
20.06.2018 21:08 23.6 C 74 % 1016.1 mbar 0.00 mm 0.0 km/h W-SW 247 0 min 0.0 UV-I 11 W/m 23.6 C 0.0 km/h
20.06.2018 21:06 23.7 C 73 % 1016.0 mbar 0.00 mm 0.0 km/h W-SW 247 0 min 0.0 UV-I 11 W/m 23.7 C 0.0 km/h
20.06.2018 21:04 23.8 C 74 % 1016.0 mbar 0.00 mm 0.0 km/h W-SW 247 0 min 0.0 UV-I 12 W/m 23.8 C 0.0 km/h
20.06.2018 21:02 23.8 C 74 % 1016.0 mbar 0.00 mm 0.0 km/h W-SW 247 0 min 0.0 UV-I 12 W/m 23.8 C 0.0 km/h
20.06.2018 21:00 23.9 C 74 % 1016.0 mbar 0.00 mm 0.0 km/h W-SW 247 0 min 0.0 UV-I 14 W/m 23.9 C 0.0 km/h
20.06.2018 20:58 24.1 C 72 % 1016.0 mbar 0.00 mm 0.0 km/h W-SW 247 0 min 0.0 UV-I 14 W/m 24.1 C 0.0 km/h
20.06.2018 20:56 24.2 C 73 % 1016.0 mbar 0.00 mm 0.2 km/h W-SW 247 0 min 0.0 UV-I 16 W/m 24.2 C 1.6 km/h
20.06.2018 20:54 24.3 C 73 % 1016.0 mbar 0.00 mm 0.8 km/h W-SW 247 0 min 0.0 UV-I 16 W/m 24.3 C 3.2 km/h
20.06.2018 20:52 24.4 C 73 % 1016.0 mbar 0.00 mm 0.6 km/h W-SW 247 0 min 0.0 UV-I 18 W/m 24.4 C 1.6 km/h
20.06.2018 20:50 24.4 C 72 % 1016.0 mbar 0.00 mm 1.6 km/h W-SW 247 0 min 0.0 UV-I 18 W/m 24.4 C 3.2 km/h
20.06.2018 20:48 24.6 C 71 % 1016.0 mbar 0.00 mm 2.2 km/h W-SW 247 0 min 0.0 UV-I 19 W/m 24.6 C 3.2 km/h
20.06.2018 20:46 24.7 C 71 % 1015.9 mbar 0.00 mm 2.0 km/h W-SW 247 0 min 0.0 UV-I 19 W/m 24.7 C 3.2 km/h
20.06.2018 20:44 24.8 C 71 % 1015.9 mbar 0.00 mm 3.4 km/h W-SW 247 0 min 0.0 UV-I 19 W/m 24.8 C 4.8 km/h
20.06.2018 20:42 25.0 C 71 % 1015.9 mbar 0.00 mm 2.8 km/h W-SW 247 0 min 0.0 UV-I 21 W/m 25.0 C 3.2 km/h
20.06.2018 20:40 25.2 C 71 % 1015.9 mbar 0.00 mm 2.9 km/h W-SW 247 0 min 0.0 UV-I 21 W/m 25.2 C 4.8 km/h
20.06.2018 20:38 25.2 C 70 % 1015.9 mbar 0.00 mm 2.0 km/h W-SW 247 0 min 0.0 UV-I 23 W/m 25.2 C 4.8 km/h
20.06.2018 20:36 25.3 C 71 % 1015.9 mbar 0.00 mm 1.4 km/h W-SW 247 0 min 0.0 UV-I 23 W/m 25.3 C 3.2 km/h
20.06.2018 20:34 25.4 C 71 % 1015.9 mbar 0.00 mm 2.6 km/h W-SW 247 0 min 0.0 UV-I 23 W/m 25.4 C 4.8 km/h
20.06.2018 20:32 25.5 C 68 % 1015.8 mbar 0.00 mm 1.9 km/h W-SW 247 0 min 0.0 UV-I 25 W/m 25.5 C 3.2 km/h
20.06.2018 20:30 25.6 C 68 % 1015.8 mbar 0.00 mm 3.0 km/h W-SW 247 0 min 0.0 UV-I 26 W/m 25.6 C 3.2 km/h
20.06.2018 20:28 25.7 C 69 % 1015.8 mbar 0.00 mm 2.9 km/h W-SW 247 0 min 0.0 UV-I 28 W/m 25.7 C 6.4 km/h
20.06.2018 20:26 25.7 C 67 % 1015.8 mbar 0.00 mm 3.1 km/h W-SW 246 0 min 0.0 UV-I 30 W/m 25.7 C 4.8 km/h
20.06.2018 20:24 25.8 C 65 % 1015.8 mbar 0.00 mm 5.6 km/h W-SW 240 0 min 0.0 UV-I 32 W/m 25.8 C 6.4 km/h
20.06.2018 20:22 25.9 C 64 % 1015.8 mbar 0.00 mm 8.1 km/h W-SW 239 0 min 0.0 UV-I 33 W/m 25.5 C 9.7 km/h
20.06.2018 20:20 26.1 C 65 % 1015.8 mbar 0.00 mm 8.3 km/h W-SW 241 0 min 0.0 UV-I 35 W/m 25.7 C 11.3 km/h
20.06.2018 20:18 26.1 C 64 % 1015.8 mbar 0.00 mm 7.2 km/h SW 229 0 min 0.0 UV-I 37 W/m 25.9 C 8.0 km/h
20.06.2018 20:16 26.3 C 66 % 1015.7 mbar 0.00 mm 7.3 km/h SW 229 0 min 0.0 UV-I 37 W/m 26.1 C 9.7 km/h
20.06.2018 20:14 26.4 C 67 % 1015.8 mbar 0.00 mm 6.7 km/h W-SW 242 0 min 0.0 UV-I 39 W/m 26.3 C 8.0 km/h
20.06.2018 20:12 26.4 C 68 % 1015.8 mbar 0.00 mm 4.0 km/h W-SW 256 0 min 0.0 UV-I 40 W/m 26.4 C 6.4 km/h
20.06.2018 20:10 26.5 C 65 % 1015.8 mbar 0.00 mm 2.9 km/h W 280 0 min 0.0 UV-I 42 W/m 26.5 C 4.8 km/h
20.06.2018 20:08 26.6 C 65 % 1015.8 mbar 0.00 mm 3.2 km/h W-NW 282 0 min 0.0 UV-I 79 W/m 26.6 C 6.4 km/h
20.06.2018 20:06 26.8 C 66 % 1015.8 mbar 0.00 mm 3.6 km/h W-NW 283 0 min 0.0 UV-I 111 W/m 26.8 C 6.4 km/h
20.06.2018 20:04 27.0 C 66 % 1015.7 mbar 0.00 mm 4.1 km/h W-NW 282 0 min 0.0 UV-I 114 W/m 27.0 C 4.8 km/h
20.06.2018 20:02 27.2 C 66 % 1015.7 mbar 0.00 mm 2.7 km/h W 265 0 min 0.0 UV-I 121 W/m 27.2 C 4.8 km/h
20.06.2018 20:00 27.4 C 63 % 1015.7 mbar 0.00 mm 6.7 km/h SW 233 0 min 0.0 UV-I 127 W/m 27.4 C 11.3 km/h
20.06.2018 19:58 27.6 C 62 % 1015.7 mbar 0.00 mm 7.5 km/h SW 230 0 min 0.0 UV-I 134 W/m 27.4 C 9.7 km/h
20.06.2018 19:56 27.7 C 62 % 1015.7 mbar 0.00 mm 5.9 km/h SW 229 0 min 0.0 UV-I 137 W/m 27.7 C 9.7 km/h
20.06.2018 19:54 27.8 C 62 % 1015.7 mbar 0.00 mm 6.5 km/h SW 226 0 min 0.0 UV-I 142 W/m 27.8 C 9.7 km/h
20.06.2018 19:52 27.9 C 60 % 1015.7 mbar 0.00 mm 6.0 km/h SW 219 0 min 0.0 UV-I 148 W/m 27.9 C 8.0 km/h
20.06.2018 19:50 27.9 C 63 % 1015.7 mbar 0.00 mm 4.1 km/h SW 226 0 min 0.0 UV-I 151 W/m 27.9 C 8.0 km/h
20.06.2018 19:48 28.0 C 56 % 1015.7 mbar 0.00 mm 5.1 km/h SW 231 0 min 0.0 UV-I 156 W/m 28.0 C 8.0 km/h
20.06.2018 19:46 28.1 C 61 % 1015.7 mbar 0.00 mm 6.6 km/h SW 229 0 min 0.0 UV-I 162 W/m 28.1 C 8.0 km/h
20.06.2018 19:44 28.1 C 59 % 1015.7 mbar 0.00 mm 4.4 km/h W-SW 245 0 min 0.0 UV-I 167 W/m 28.1 C 6.4 km/h
20.06.2018 19:42 28.2 C 57 % 1015.7 mbar 0.00 mm 5.6 km/h W-SW 245 0 min 0.0 UV-I 171 W/m 28.2 C 8.0 km/h
20.06.2018 19:40 28.3 C 62 % 1015.7 mbar 0.00 mm 3.3 km/h W-SW 249 0 min 0.0 UV-I 178 W/m 28.3 C 4.8 km/h
20.06.2018 19:38 28.3 C 62 % 1015.7 mbar 0.00 mm 3.4 km/h SW 223 0 min 0.0 UV-I 181 W/m 28.3 C 4.8 km/h
20.06.2018 19:36 28.3 C 61 % 1015.7 mbar 0.00 mm 2.8 km/h SW 223 0 min 0.0 UV-I 186 W/m 28.3 C 4.8 km/h
20.06.2018 19:34 28.3 C 57 % 1015.7 mbar 0.00 mm 2.1 km/h SW 223 0 min 0.0 UV-I 193 W/m 28.3 C 4.8 km/h
20.06.2018 19:32 28.4 C 57 % 1015.7 mbar 0.00 mm 3.5 km/h SW 223 0 min 0.0 UV-I 197 W/m 28.4 C 4.8 km/h
20.06.2018 19:30 28.4 C 58 % 1015.7 mbar 0.00 mm 1.8 km/h SW 223 0 min 0.0 UV-I 202 W/m 28.4 C 3.2 km/h
20.06.2018 19:28 28.4 C 56 % 1015.7 mbar 0.00 mm 5.3 km/h SW 223 0 min 0.5 UV-I 207 W/m 28.4 C 8.0 km/h
20.06.2018 19:26 28.6 C 58 % 1015.6 mbar 0.00 mm 3.8 km/h W-SW 239 0 min 0.5 UV-I 213 W/m 28.6 C 4.8 km/h
20.06.2018 19:24 28.6 C 56 % 1015.6 mbar 0.00 mm 4.4 km/h W-SW 239 0 min 0.5 UV-I 216 W/m 28.6 C 6.4 km/h
20.06.2018 19:22 28.7 C 58 % 1015.6 mbar 0.00 mm 4.6 km/h W-SW 239 0 min 0.5 UV-I 221 W/m 28.7 C 6.4 km/h
20.06.2018 19:20 28.7 C 56 % 1015.6 mbar 0.00 mm 3.8 km/h W-SW 239 0 min 0.5 UV-I 227 W/m 28.7 C 4.8 km/h
20.06.2018 19:18 28.7 C 57 % 1015.7 mbar 0.00 mm 3.9 km/h W-SW 239 0 min 0.6 UV-I 232 W/m 28.7 C 4.8 km/h
20.06.2018 19:16 28.8 C 56 % 1015.7 mbar 0.00 mm 4.5 km/h W-SW 239 0 min 0.6 UV-I 239 W/m 28.8 C 6.4 km/h
20.06.2018 19:14 28.8 C 58 % 1015.6 mbar 0.00 mm 4.6 km/h W-SW 240 0 min 0.6 UV-I 244 W/m 28.8 C 6.4 km/h
20.06.2018 19:12 28.9 C 57 % 1015.7 mbar 0.00 mm 2.9 km/h W-SW 241 0 min 0.6 UV-I 248 W/m 28.9 C 4.8 km/h
20.06.2018 19:10 28.9 C 55 % 1015.6 mbar 0.00 mm 2.2 km/h W-SW 241 0 min 0.6 UV-I 257 W/m 28.9 C 3.2 km/h
20.06.2018 19:08 29.1 C 57 % 1015.6 mbar 0.00 mm 0.6 km/h W-SW 241 0 min 0.7 UV-I 264 W/m 29.1 C 3.2 km/h
20.06.2018 19:06 29.1 C 56 % 1015.7 mbar 0.00 mm 2.4 km/h W-SW 241 0 min 0.7 UV-I 269 W/m 29.1 C 4.8 km/h
20.06.2018 19:04 29.2 C 57 % 1015.7 mbar 0.00 mm 3.0 km/h W-SW 241 2 min 0.7 UV-I 279 W/m 29.2 C 4.8 km/h
20.06.2018 19:02 29.2 C 57 % 1015.7 mbar 0.00 mm 3.3 km/h W-SW 242 2 min 0.7 UV-I 281 W/m 29.2 C 4.8 km/h
20.06.2018 19:00 29.2 C 55 % 1015.7 mbar 0.00 mm 4.2 km/h W-SW 244 2 min 0.8 UV-I 287 W/m 29.2 C 6.4 km/h
20.06.2018 18:58 29.3 C 52 % 1015.7 mbar 0.00 mm 5.7 km/h SW 232 2 min 0.8 UV-I 295 W/m 29.3 C 8.0 km/h
20.06.2018 18:56 29.4 C 55 % 1015.7 mbar 0.00 mm 6.0 km/h SW 229 2 min 0.8 UV-I 299 W/m 29.4 C 8.0 km/h
20.06.2018 18:54 29.4 C 54 % 1015.8 mbar 0.00 mm 5.5 km/h W-SW 245 2 min 0.8 UV-I 302 W/m 29.4 C 6.4 km/h
20.06.2018 18:52 29.4 C 55 % 1015.8 mbar 0.00 mm 4.3 km/h W-SW 240 2 min 0.9 UV-I 308 W/m 29.4 C 6.4 km/h
20.06.2018 18:50 29.4 C 54 % 1015.8 mbar 0.00 mm 2.9 km/h W-SW 254 2 min 0.9 UV-I 315 W/m 29.4 C 4.8 km/h
20.06.2018 18:48 29.4 C 54 % 1015.8 mbar 0.00 mm 3.1 km/h W-NW 298 2 min 0.9 UV-I 320 W/m 29.4 C 6.4 km/h
20.06.2018 18:46 29.4 C 52 % 1015.7 mbar 0.00 mm 2.6 km/h W-NW 299 2 min 0.9 UV-I 322 W/m 29.4 C 4.8 km/h
20.06.2018 18:44 29.4 C 51 % 1015.7 mbar 0.00 mm 3.7 km/h NW 325 2 min 0.9 UV-I 325 W/m 29.4 C 6.4 km/h
20.06.2018 18:42 29.4 C 56 % 1015.7 mbar 0.00 mm 3.0 km/h N-NW 332 2 min 1.0 UV-I 323 W/m 29.4 C 6.4 km/h
20.06.2018 18:40 29.4 C 54 % 1015.7 mbar 0.00 mm 3.3 km/h N 349 2 min 1.0 UV-I 323 W/m 29.4 C 8.0 km/h
20.06.2018 18:38 29.4 C 53 % 1015.7 mbar 0.00 mm 2.1 km/h N 6 2 min 1.0 UV-I 330 W/m 29.4 C 4.8 km/h
20.06.2018 18:36 29.4 C 51 % 1015.7 mbar 0.00 mm 2.1 km/h N 6 2 min 1.1 UV-I 345 W/m 29.4 C 3.2 km/h
20.06.2018 18:34 29.4 C 53 % 1015.7 mbar 0.00 mm 3.7 km/h N 6 2 min 1.1 UV-I 350 W/m 29.4 C 6.4 km/h
20.06.2018 18:32 29.5 C 51 % 1015.7 mbar 0.00 mm 2.2 km/h NO 45 2 min 1.1 UV-I 353 W/m 29.5 C 6.4 km/h
20.06.2018 18:30 29.5 C 50 % 1015.7 mbar 0.00 mm 2.1 km/h N-NO 30 2 min 1.2 UV-I 357 W/m 29.5 C 3.2 km/h
20.06.2018 18:28 29.4 C 55 % 1015.7 mbar 0.00 mm 0.6 km/h N-NO 30 2 min 1.2 UV-I 360 W/m 29.4 C 3.2 km/h
20.06.2018 18:26 29.4 C 55 % 1015.7 mbar 0.00 mm 1.5 km/h N-NO 30 2 min 1.2 UV-I 367 W/m 29.4 C 4.8 km/h
20.06.2018 18:24 29.3 C 53 % 1015.7 mbar 0.00 mm 3.3 km/h N-NO 30 2 min 1.3 UV-I 371 W/m 29.3 C 4.8 km/h
20.06.2018 18:22 29.3 C 55 % 1015.7 mbar 0.00 mm 4.2 km/h N-NO 29 2 min 1.3 UV-I 383 W/m 29.3 C 6.4 km/h
20.06.2018 18:20 29.4 C 54 % 1015.7 mbar 0.00 mm 3.3 km/h N-NO 20 2 min 1.3 UV-I 394 W/m 29.4 C 9.7 km/h
20.06.2018 18:18 29.4 C 53 % 1015.8 mbar 0.00 mm 0.1 km/h N-NW 344 2 min 1.4 UV-I 396 W/m 29.4 C 1.6 km/h
20.06.2018 18:16 29.4 C 51 % 1015.8 mbar 0.00 mm 2.7 km/h N-NW 345 2 min 1.4 UV-I 399 W/m 29.4 C 6.4 km/h
20.06.2018 18:14 29.6 C 51 % 1015.8 mbar 0.00 mm 2.2 km/h N 5 2 min 1.4 UV-I 399 W/m 29.6 C 4.8 km/h
20.06.2018 18:12 29.6 C 53 % 1015.8 mbar 0.00 mm 3.4 km/h N 5 2 min 1.5 UV-I 404 W/m 29.6 C 4.8 km/h
20.06.2018 18:10 29.6 C 51 % 1015.8 mbar 0.00 mm 5.5 km/h N 354 2 min 1.5 UV-I 411 W/m 29.6 C 8.0 km/h
20.06.2018 18:08 29.8 C 55 % 1015.8 mbar 0.00 mm 3.5 km/h N-NW 341 2 min 1.5 UV-I 422 W/m 29.8 C 8.0 km/h
20.06.2018 18:06 29.8 C 51 % 1015.8 mbar 0.00 mm 4.1 km/h N-NW 340 2 min 1.6 UV-I 425 W/m 29.8 C 8.0 km/h
20.06.2018 18:04 29.9 C 55 % 1015.9 mbar 0.00 mm 4.9 km/h NO 39 2 min 1.6 UV-I 427 W/m 29.9 C 6.4 km/h
20.06.2018 18:02 29.8 C 53 % 1015.9 mbar 0.00 mm 4.5 km/h N-NO 33 2 min 1.6 UV-I 427 W/m 29.8 C 6.4 km/h
20.06.2018 18:00 29.8 C 55 % 1015.9 mbar 0.00 mm 7.0 km/h N-NO 32 2 min 1.7 UV-I 439 W/m 29.7 C 9.7 km/h
20.06.2018 17:58 29.7 C 55 % 1016.0 mbar 0.00 mm 4.0 km/h N-NO 18 2 min 1.7 UV-I 445 W/m 29.7 C 8.0 km/h
20.06.2018 17:56 29.7 C 52 % 1015.9 mbar 0.00 mm 1.0 km/h N 5 2 min 1.8 UV-I 452 W/m 29.7 C 6.4 km/h
20.06.2018 17:54 29.6 C 50 % 1015.9 mbar 0.00 mm 3.1 km/h N 5 2 min 1.8 UV-I 461 W/m 29.6 C 6.4 km/h
20.06.2018 17:52 29.6 C 54 % 1016.0 mbar 0.00 mm 3.3 km/h N 5 2 min 1.9 UV-I 461 W/m 29.6 C 6.4 km/h
20.06.2018 17:50 29.6 C 56 % 1016.0 mbar 0.00 mm 4.8 km/h NO 35 2 min 1.9 UV-I 454 W/m 29.6 C 8.0 km/h
20.06.2018 17:48 29.6 C 52 % 1016.0 mbar 0.00 mm 5.3 km/h N-NW 347 2 min 1.9 UV-I 469 W/m 29.6 C 9.7 km/h
20.06.2018 17:46 29.5 C 50 % 1016.0 mbar 0.00 mm 2.9 km/h N-NO 27 2 min 2.0 UV-I 471 W/m 29.5 C 8.0 km/h
20.06.2018 17:44 29.6 C 51 % 1016.1 mbar 0.00 mm 0.8 km/h N 355 2 min 2.0 UV-I 469 W/m 29.6 C 1.6 km/h
20.06.2018 17:42 29.6 C 53 % 1016.0 mbar 0.00 mm 2.8 km/h N 355 2 min 2.0 UV-I 475 W/m 29.6 C 6.4 km/h
20.06.2018 17:40 29.5 C 51 % 1016.1 mbar 0.00 mm 1.4 km/h N 353 2 min 2.1 UV-I 489 W/m 29.5 C 8.0 km/h
20.06.2018 17:38 29.4 C 52 % 1016.0 mbar 0.00 mm 0.1 km/h N 350 2 min 2.2 UV-I 490 W/m 29.4 C 1.6 km/h
20.06.2018 17:36 29.4 C 50 % 1016.1 mbar 0.00 mm 1.3 km/h N 350 2 min 2.2 UV-I 503 W/m 29.4 C 3.2 km/h
20.06.2018 17:34 29.6 C 54 % 1016.2 mbar 0.00 mm 4.0 km/h N 350 2 min 2.2 UV-I 506 W/m 29.6 C 6.4 km/h
20.06.2018 17:32 29.6 C 52 % 1016.2 mbar 0.00 mm 2.7 km/h N 354 2 min 2.3 UV-I 506 W/m 29.6 C 6.4 km/h
20.06.2018 17:30 29.6 C 53 % 1016.2 mbar 0.00 mm 0.0 km/h O-NO 60 2 min 2.3 UV-I 513 W/m 29.6 C 0.0 km/h
20.06.2018 17:28 29.5 C 54 % 1016.2 mbar 0.00 mm 0.0 km/h O-NO 60 2 min 2.4 UV-I 519 W/m 29.5 C 0.0 km/h
20.06.2018 17:26 29.4 C 55 % 1016.2 mbar 0.00 mm 0.2 km/h N 351 2 min 2.4 UV-I 519 W/m 29.4 C 1.6 km/h
20.06.2018 17:24 29.3 C 51 % 1016.2 mbar 0.00 mm 1.0 km/h N 351 0 min 2.3 UV-I 135 W/m 29.3 C 6.4 km/h
20.06.2018 17:22 29.3 C 54 % 1016.2 mbar 0.00 mm 0.3 km/h N 351 2 min 1.9 UV-I 534 W/m 29.3 C 3.2 km/h
20.06.2018 17:20 29.2 C 53 % 1016.3 mbar 0.00 mm 1.2 km/h N 358 2 min 2.5 UV-I 534 W/m 29.2 C 3.2 km/h
20.06.2018 17:18 29.2 C 52 % 1016.3 mbar 0.00 mm 0.9 km/h N 358 2 min 2.6 UV-I 543 W/m 29.2 C 3.2 km/h
20.06.2018 17:16 29.2 C 56 % 1016.3 mbar 0.00 mm 1.1 km/h N 360 2 min 2.7 UV-I 550 W/m 29.2 C 4.8 km/h
20.06.2018 17:14 29.1 C 52 % 1016.3 mbar 0.00 mm 3.7 km/h N 360 2 min 2.7 UV-I 547 W/m 29.1 C 8.0 km/h
20.06.2018 17:12 29.1 C 56 % 1016.3 mbar 0.00 mm 2.3 km/h N 4 2 min 2.7 UV-I 554 W/m 29.1 C 4.8 km/h
20.06.2018 17:10 28.9 C 53 % 1016.3 mbar 0.00 mm 0.9 km/h N-NW 328 2 min 2.8 UV-I 563 W/m 28.9 C 3.2 km/h
20.06.2018 17:08 28.9 C 51 % 1016.3 mbar 0.00 mm 3.7 km/h N-NW 328 2 min 2.9 UV-I 578 W/m 28.9 C 4.8 km/h
20.06.2018 17:06 29.0 C 52 % 1016.3 mbar 0.00 mm 3.4 km/h N-NW 328 2 min 2.9 UV-I 582 W/m 29.0 C 6.4 km/h
20.06.2018 17:04 29.1 C 54 % 1016.3 mbar 0.00 mm 1.8 km/h N 4 2 min 2.9 UV-I 582 W/m 29.1 C 4.8 km/h
20.06.2018 17:02 29.2 C 50 % 1016.4 mbar 0.00 mm 3.5 km/h NW 326 2 min 3.0 UV-I 589 W/m 29.2 C 6.4 km/h
20.06.2018 17:00 29.3 C 54 % 1016.4 mbar 0.00 mm 2.3 km/h NW 326 2 min 3.1 UV-I 596 W/m 29.3 C 8.0 km/h
20.06.2018 16:58 29.3 C 52 % 1016.4 mbar 0.00 mm 2.6 km/h NW 319 2 min 3.1 UV-I 598 W/m 29.3 C 4.8 km/h
20.06.2018 16:56 29.3 C 51 % 1016.4 mbar 0.00 mm 2.4 km/h NW 313 2 min 3.2 UV-I 606 W/m 29.3 C 4.8 km/h
20.06.2018 16:54 29.4 C 50 % 1016.4 mbar 0.00 mm 2.8 km/h NW 320 2 min 3.2 UV-I 615 W/m 29.4 C 6.4 km/h
20.06.2018 16:52 29.6 C 52 % 1016.5 mbar 0.00 mm 0.7 km/h N-NW 332 2 min 3.1 UV-I 571 W/m 29.6 C 4.8 km/h
20.06.2018 16:50 29.6 C 54 % 1016.5 mbar 0.00 mm 4.2 km/h N-NW 332 2 min 3.2 UV-I 594 W/m 29.6 C 6.4 km/h
20.06.2018 16:48 29.4 C 51 % 1016.5 mbar 0.00 mm 5.8 km/h N-NO 21 2 min 3.3 UV-I 617 W/m 29.4 C 8.0 km/h
20.06.2018 16:46 29.4 C 51 % 1016.5 mbar 0.00 mm 4.2 km/h N-NW 347 2 min 3.5 UV-I 631 W/m 29.4 C 6.4 km/h
20.06.2018 16:44 29.3 C 52 % 1016.5 mbar 0.00 mm 3.7 km/h N-NW 339 2 min 3.5 UV-I 631 W/m 29.3 C 6.4 km/h
20.06.2018 16:42 29.2 C 51 % 1016.5 mbar 0.00 mm 1.5 km/h N 7 2 min 3.6 UV-I 633 W/m 29.2 C 6.4 km/h
20.06.2018 16:40 29.2 C 51 % 1016.6 mbar 0.00 mm 0.2 km/h N-NW 347 2 min 3.6 UV-I 638 W/m 29.2 C 1.6 km/h
20.06.2018 16:38 29.2 C 49 % 1016.6 mbar 0.00 mm 1.2 km/h N-NW 347 2 min 3.6 UV-I 647 W/m 29.2 C 4.8 km/h
20.06.2018 16:36 29.3 C 49 % 1016.6 mbar 0.00 mm 2.0 km/h N-NW 347 2 min 3.7 UV-I 652 W/m 29.3 C 4.8 km/h
20.06.2018 16:34 29.3 C 51 % 1016.6 mbar 0.00 mm 2.6 km/h N-NW 347 2 min 3.8 UV-I 650 W/m 29.3 C 8.0 km/h
20.06.2018 16:32 29.3 C 50 % 1016.7 mbar 0.00 mm 0.3 km/h N-NW 348 2 min 3.8 UV-I 654 W/m 29.3 C 3.2 km/h
20.06.2018 16:30 29.3 C 55 % 1016.7 mbar 0.00 mm 3.2 km/h N 2 2 min 3.8 UV-I 654 W/m 29.3 C 4.8 km/h
20.06.2018 16:28 29.3 C 53 % 1016.7 mbar 0.00 mm 3.8 km/h N 355 2 min 3.9 UV-I 654 W/m 29.3 C 6.4 km/h
20.06.2018 16:26 29.2 C 54 % 1016.8 mbar 0.00 mm 5.2 km/h N-NO 31 2 min 4.0 UV-I 668 W/m 29.2 C 8.0 km/h
20.06.2018 16:24 29.0 C 53 % 1016.7 mbar 0.00 mm 4.1 km/h N-NO 17 2 min 4.1 UV-I 677 W/m 29.0 C 6.4 km/h
20.06.2018 16:22 28.9 C 56 % 1016.7 mbar 0.00 mm 3.5 km/h N-NO 31 2 min 4.1 UV-I 671 W/m 28.9 C 8.0 km/h
20.06.2018 16:20 28.8 C 56 % 1016.8 mbar 0.00 mm 6.3 km/h N-NO 15 2 min 4.1 UV-I 684 W/m 28.8 C 8.0 km/h
20.06.2018 16:18 28.7 C 52 % 1016.8 mbar 0.00 mm 3.7 km/h NO 37 2 min 4.2 UV-I 701 W/m 28.7 C 6.4 km/h
20.06.2018 16:16 28.7 C 52 % 1016.8 mbar 0.00 mm 1.5 km/h N-NW 345 2 min 4.3 UV-I 708 W/m 28.7 C 3.2 km/h
20.06.2018 16:14 28.6 C 55 % 1016.8 mbar 0.00 mm 3.7 km/h N-NW 345 2 min 4.3 UV-I 703 W/m 28.6 C 8.0 km/h
20.06.2018 16:12 28.6 C 56 % 1016.8 mbar 0.00 mm 4.4 km/h N-NO 25 2 min 4.3 UV-I 696 W/m 28.6 C 6.4 km/h
20.06.2018 16:10 28.4 C 56 % 1016.9 mbar 0.00 mm 5.9 km/h N-NO 28 2 min 4.3 UV-I 696 W/m 28.4 C 8.0 km/h
20.06.2018 16:08 28.5 C 53 % 1016.8 mbar 0.00 mm 5.0 km/h N-NW 343 2 min 4.5 UV-I 708 W/m 28.5 C 8.0 km/h
20.06.2018 16:06 28.5 C 56 % 1016.9 mbar 0.00 mm 2.7 km/h N 6 2 min 4.5 UV-I 715 W/m 28.5 C 9.7 km/h
20.06.2018 16:04 28.4 C 56 % 1016.9 mbar 0.00 mm 3.5 km/h N-NW 343 2 min 4.5 UV-I 714 W/m 28.4 C 6.4 km/h
20.06.2018 16:02 28.4 C 57 % 1016.9 mbar 0.00 mm 2.7 km/h N-NW 334 2 min 4.5 UV-I 708 W/m 28.4 C 4.8 km/h
20.06.2018 16:00 28.3 C 56 % 1016.9 mbar 0.00 mm 3.2 km/h N 9 2 min 4.5 UV-I 717 W/m 28.3 C 6.4 km/h
20.06.2018 15:58 28.3 C 55 % 1016.9 mbar 0.00 mm 5.5 km/h N 358 2 min 4.6 UV-I 724 W/m 28.3 C 9.7 km/h
20.06.2018 15:56 28.3 C 55 % 1017.0 mbar 0.00 mm 4.6 km/h N 2 2 min 4.6 UV-I 728 W/m 28.3 C 8.0 km/h
20.06.2018 15:54 28.2 C 59 % 1016.9 mbar 0.00 mm 1.6 km/h W-NW 303 2 min 4.6 UV-I 729 W/m 28.2 C 3.2 km/h
20.06.2018 15:52 28.0 C 54 % 1017.0 mbar 0.00 mm 2.9 km/h NW 307 2 min 4.6 UV-I 731 W/m 28.0 C 4.8 km/h
20.06.2018 15:50 28.0 C 53 % 1017.0 mbar 0.00 mm 3.6 km/h N 352 2 min 4.6 UV-I 737 W/m 28.0 C 6.4 km/h
20.06.2018 15:48 28.1 C 51 % 1017.0 mbar 0.00 mm 4.8 km/h N-NW 338 2 min 4.6 UV-I 737 W/m 28.1 C 8.0 km/h
20.06.2018 15:46 28.2 C 54 % 1017.0 mbar 0.00 mm 6.6 km/h N-NW 338 2 min 4.7 UV-I 740 W/m 28.2 C 8.0 km/h
20.06.2018 15:44 28.3 C 53 % 1017.1 mbar 0.00 mm 4.9 km/h N-NW 348 2 min 4.7 UV-I 745 W/m 28.3 C 8.0 km/h
20.06.2018 15:42 28.4 C 54 % 1017.1 mbar 0.00 mm 4.1 km/h N-NW 345 2 min 4.8 UV-I 749 W/m 28.4 C 8.0 km/h
20.06.2018 15:40 28.6 C 57 % 1017.1 mbar 0.00 mm 4.6 km/h N-NO 12 2 min 4.7 UV-I 749 W/m 28.6 C 6.4 km/h
20.06.2018 15:38 28.5 C 61 % 1017.1 mbar 0.00 mm 2.9 km/h W-SW 247 2 min 4.8 UV-I 752 W/m 28.5 C 4.8 km/h
20.06.2018 15:36 28.4 C 52 % 1017.1 mbar 0.00 mm 4.1 km/h W-SW 248 2 min 4.9 UV-I 761 W/m 28.4 C 6.4 km/h
20.06.2018 15:34 28.3 C 55 % 1017.2 mbar 0.00 mm 1.7 km/h N-NO 13 2 min 4.9 UV-I 766 W/m 28.3 C 3.2 km/h
20.06.2018 15:32 28.2 C 59 % 1017.2 mbar 0.00 mm 3.9 km/h N-NO 13 2 min 4.9 UV-I 766 W/m 28.2 C 4.8 km/h
20.06.2018 15:30 28.1 C 54 % 1017.2 mbar 0.00 mm 4.4 km/h W-SW 239 2 min 4.9 UV-I 765 W/m 28.1 C 6.4 km/h
20.06.2018 15:28 28.1 C 51 % 1017.2 mbar 0.00 mm 6.4 km/h SW 233 2 min 5.0 UV-I 780 W/m 28.1 C 8.0 km/h
20.06.2018 15:26 28.0 C 52 % 1017.2 mbar 0.00 mm 6.7 km/h SW 236 2 min 5.1 UV-I 802 W/m 28.0 C 8.0 km/h
20.06.2018 15:24 27.9 C 53 % 1017.3 mbar 0.00 mm 5.5 km/h W-SW 251 2 min 5.1 UV-I 791 W/m 27.9 C 8.0 km/h
20.06.2018 15:22 27.9 C 51 % 1017.3 mbar 0.00 mm 3.8 km/h W 261 2 min 4.9 UV-I 784 W/m 27.9 C 6.4 km/h
20.06.2018 15:20 27.9 C 52 % 1017.4 mbar 0.00 mm 1.9 km/h N-NW 335 2 min 5.2 UV-I 789 W/m 27.9 C 3.2 km/h
20.06.2018 15:18 28.0 C 49 % 1017.4 mbar 0.00 mm 4.4 km/h N-NW 335 2 min 5.4 UV-I 802 W/m 28.0 C 6.4 km/h
20.06.2018 15:16 28.0 C 58 % 1017.4 mbar 0.00 mm 6.3 km/h NO 40 2 min 5.6 UV-I 817 W/m 28.0 C 8.0 km/h
20.06.2018 15:14 27.8 C 59 % 1017.4 mbar 0.00 mm 6.8 km/h NO 34 2 min 5.6 UV-I 657 W/m 27.7 C 9.7 km/h
20.06.2018 15:12 27.8 C 56 % 1017.4 mbar 0.00 mm 3.4 km/h N-NO 17 2 min 5.6 UV-I 849 W/m 27.8 C 6.4 km/h
20.06.2018 15:10 27.8 C 52 % 1017.5 mbar 0.00 mm 4.7 km/h W 278 2 min 3.4 UV-I 849 W/m 27.8 C 8.0 km/h
20.06.2018 15:08 27.9 C 60 % 1017.4 mbar 0.00 mm 7.0 km/h NW 317 2 min 5.8 UV-I 849 W/m 27.8 C 9.7 km/h
20.06.2018 15:06 27.9 C 54 % 1017.5 mbar 0.00 mm 6.2 km/h N 10 2 min 5.9 UV-I 821 W/m 27.9 C 9.7 km/h
20.06.2018 15:04 28.1 C 52 % 1017.4 mbar 0.00 mm 6.6 km/h N 355 2 min 5.9 UV-I 816 W/m 28.1 C 9.7 km/h
20.06.2018 15:02 28.2 C 56 % 1017.4 mbar 0.00 mm 5.6 km/h N 360 2 min 6.0 UV-I 817 W/m 28.2 C 8.0 km/h
20.06.2018 15:00 28.3 C 54 % 1017.4 mbar 0.00 mm 2.9 km/h N 5 2 min 6.0 UV-I 828 W/m 28.3 C 8.0 km/h
20.06.2018 14:58 28.4 C 56 % 1017.5 mbar 0.00 mm 4.6 km/h NW 309 2 min 6.1 UV-I 830 W/m 28.4 C 8.0 km/h
20.06.2018 14:56 28.5 C 52 % 1017.5 mbar 0.00 mm 3.4 km/h N-NW 339 2 min 6.1 UV-I 833 W/m 28.5 C 8.0 km/h
20.06.2018 14:54 28.5 C 55 % 1017.5 mbar 0.00 mm 1.6 km/h O-NO 74 2 min 5.5 UV-I 492 W/m 28.5 C 4.8 km/h
20.06.2018 14:52 28.4 C 53 % 1017.5 mbar 0.00 mm 1.5 km/h NO 41 2 min 6.4 UV-I 849 W/m 28.4 C 3.2 km/h
20.06.2018 14:50 28.2 C 54 % 1017.6 mbar 0.00 mm 2.1 km/h NO 35 2 min 6.3 UV-I 860 W/m 28.2 C 3.2 km/h
20.06.2018 14:48 28.1 C 50 % 1017.6 mbar 0.00 mm 3.0 km/h NO 35 2 min 6.3 UV-I 863 W/m 28.1 C 6.4 km/h
20.06.2018 14:46 28.0 C 49 % 1017.6 mbar 0.00 mm 0.8 km/h NO 35 2 min 6.4 UV-I 853 W/m 28.0 C 3.2 km/h
20.06.2018 14:44 27.9 C 51 % 1017.6 mbar 0.00 mm 4.4 km/h NO 35 2 min 6.5 UV-I 854 W/m 27.9 C 9.7 km/h
20.06.2018 14:42 28.0 C 53 % 1017.6 mbar 0.00 mm 1.9 km/h N-NW 347 2 min 6.5 UV-I 853 W/m 28.0 C 11.3 km/h
20.06.2018 14:40 27.9 C 52 % 1017.6 mbar 0.00 mm 3.8 km/h N-NO 31 2 min 6.5 UV-I 842 W/m 27.9 C 6.4 km/h
20.06.2018 14:38 27.9 C 53 % 1017.6 mbar 0.00 mm 7.1 km/h N-NO 20 2 min 4.0 UV-I 842 W/m 27.8 C 11.3 km/h
20.06.2018 14:36 27.9 C 53 % 1017.7 mbar 0.00 mm 4.7 km/h N-NO 28 2 min 6.5 UV-I 840 W/m 27.9 C 8.0 km/h
20.06.2018 14:34 27.8 C 57 % 1017.7 mbar 0.00 mm 3.3 km/h N-NO 20 2 min 6.6 UV-I 861 W/m 27.8 C 9.7 km/h
20.06.2018 14:32 27.7 C 51 % 1017.6 mbar 0.00 mm 2.1 km/h W 278 2 min 6.7 UV-I 863 W/m 27.7 C 3.2 km/h
20.06.2018 14:30 27.6 C 51 % 1017.6 mbar 0.00 mm 3.4 km/h W 279 2 min 6.7 UV-I 856 W/m 27.6 C 4.8 km/h
20.06.2018 14:28 27.5 C 54 % 1017.6 mbar 0.00 mm 0.8 km/h W 281 2 min 6.8 UV-I 891 W/m 27.5 C 4.8 km/h
20.06.2018 14:26 27.3 C 50 % 1017.7 mbar 0.00 mm 2.0 km/h N-NO 12 2 min 6.7 UV-I 875 W/m 27.3 C 3.2 km/h
20.06.2018 14:24 27.3 C 53 % 1017.6 mbar 0.00 mm 2.6 km/h N-NO 12 2 min 5.5 UV-I 889 W/m 27.3 C 4.8 km/h
20.06.2018 14:22 27.3 C 53 % 1017.7 mbar 0.00 mm 3.4 km/h N-NO 22 2 min 6.6 UV-I 865 W/m 27.3 C 6.4 km/h
20.06.2018 14:20 27.2 C 52 % 1017.7 mbar 0.00 mm 4.1 km/h N-NO 26 0 min 4.9 UV-I 185 W/m 27.2 C 6.4 km/h
20.06.2018 14:18 27.3 C 49 % 1017.7 mbar 0.00 mm 5.9 km/h N-NO 18 2 min 6.6 UV-I 872 W/m 27.3 C 8.0 km/h
20.06.2018 14:16 27.3 C 52 % 1017.7 mbar 0.00 mm 3.9 km/h N-NO 18 2 min 6.7 UV-I 867 W/m 27.3 C 6.4 km/h
20.06.2018 14:14 27.3 C 50 % 1017.7 mbar 0.00 mm 6.4 km/h W-NW 295 2 min 6.8 UV-I 867 W/m 27.3 C 9.7 km/h
20.06.2018 14:12 27.3 C 54 % 1017.7 mbar 0.00 mm 3.0 km/h W 271 2 min 6.9 UV-I 865 W/m 27.3 C 4.8 km/h
20.06.2018 14:10 27.2 C 56 % 1017.7 mbar 0.00 mm 2.8 km/h W 272 2 min 6.9 UV-I 863 W/m 27.2 C 4.8 km/h
20.06.2018 14:08 27.1 C 53 % 1017.8 mbar 0.00 mm 3.5 km/h W 266 2 min 6.9 UV-I 861 W/m 27.1 C 4.8 km/h
20.06.2018 14:06 27.0 C 53 % 1017.8 mbar 0.00 mm 4.0 km/h W 276 2 min 7.0 UV-I 872 W/m 27.0 C 4.8 km/h
20.06.2018 14:04 26.9 C 51 % 1017.8 mbar 0.00 mm 3.4 km/h W-SW 237 2 min 7.0 UV-I 875 W/m 26.9 C 4.8 km/h
20.06.2018 14:02 26.8 C 50 % 1017.8 mbar 0.00 mm 3.4 km/h W-NW 300 2 min 6.9 UV-I 865 W/m 26.8 C 6.4 km/h
20.06.2018 14:00 26.8 C 52 % 1017.9 mbar 0.00 mm 3.7 km/h N-NW 348 2 min 6.9 UV-I 863 W/m 26.8 C 9.7 km/h
20.06.2018 13:58 26.7 C 51 % 1017.9 mbar 0.00 mm 4.0 km/h N-NW 329 2 min 7.0 UV-I 865 W/m 26.7 C 8.0 km/h
20.06.2018 13:56 26.8 C 51 % 1017.9 mbar 0.00 mm 1.5 km/h NW 308 2 min 6.9 UV-I 861 W/m 26.8 C 8.0 km/h
20.06.2018 13:54 26.8 C 49 % 1018.0 mbar 0.00 mm 6.2 km/h N 1 2 min 7.0 UV-I 867 W/m 26.8 C 11.3 km/h
20.06.2018 13:52 26.7 C 52 % 1018.0 mbar 0.00 mm 4.7 km/h NO 35 2 min 7.1 UV-I 872 W/m 26.7 C 9.7 km/h
20.06.2018 13:50 26.7 C 52 % 1018.0 mbar 0.00 mm 2.4 km/h N-NW 336 2 min 7.0 UV-I 868 W/m 26.7 C 6.4 km/h
20.06.2018 13:48 26.7 C 49 % 1018.0 mbar 0.00 mm 5.1 km/h N-NW 347 2 min 7.0 UV-I 868 W/m 26.7 C 9.7 km/h
20.06.2018 13:46 26.7 C 55 % 1018.0 mbar 0.00 mm 3.3 km/h N-NW 327 2 min 7.1 UV-I 870 W/m 26.7 C 4.8 km/h
20.06.2018 13:44 26.6 C 55 % 1018.0 mbar 0.00 mm 3.0 km/h NW 312 2 min 7.0 UV-I 868 W/m 26.6 C 4.8 km/h
20.06.2018 13:42 26.6 C 54 % 1018.0 mbar 0.00 mm 1.0 km/h N-NW 329 2 min 7.0 UV-I 872 W/m 26.6 C 3.2 km/h
20.06.2018 13:40 26.4 C 53 % 1018.0 mbar 0.00 mm 1.6 km/h N 349 2 min 7.1 UV-I 875 W/m 26.4 C 3.2 km/h
20.06.2018 13:38 26.4 C 57 % 1018.1 mbar 0.00 mm 4.5 km/h N 349 2 min 7.0 UV-I 870 W/m 26.4 C 8.0 km/h
20.06.2018 13:36 26.3 C 56 % 1018.1 mbar 0.00 mm 2.5 km/h N 354 2 min 7.0 UV-I 868 W/m 26.3 C 6.4 km/h
20.06.2018 13:34 26.3 C 54 % 1018.2 mbar 0.00 mm 3.2 km/h W-NW 298 2 min 7.0 UV-I 872 W/m 26.3 C 4.8 km/h
20.06.2018 13:32 26.3 C 57 % 1018.2 mbar 0.00 mm 3.7 km/h NW 307 2 min 7.0 UV-I 872 W/m 26.3 C 8.0 km/h
20.06.2018 13:30 26.3 C 54 % 1018.2 mbar 0.00 mm 3.5 km/h W 279 2 min 7.0 UV-I 868 W/m 26.3 C 6.4 km/h
20.06.2018 13:28 26.3 C 52 % 1018.2 mbar 0.00 mm 4.4 km/h NW 306 2 min 7.0 UV-I 867 W/m 26.3 C 6.4 km/h
20.06.2018 13:26 26.4 C 57 % 1018.2 mbar 0.00 mm 3.6 km/h N-NW 335 2 min 7.0 UV-I 861 W/m 26.4 C 6.4 km/h
20.06.2018 13:24 26.4 C 53 % 1018.3 mbar 0.00 mm 5.9 km/h N-NW 343 2 min 7.0 UV-I 861 W/m 26.4 C 9.7 km/h
20.06.2018 13:22 26.5 C 56 % 1018.3 mbar 0.00 mm 1.9 km/h N 359 2 min 7.0 UV-I 860 W/m 26.5 C 8.0 km/h
20.06.2018 13:20 26.4 C 60 % 1018.3 mbar 0.00 mm 1.8 km/h SW 215 2 min 7.0 UV-I 858 W/m 26.4 C 3.2 km/h
20.06.2018 13:18 26.3 C 55 % 1018.3 mbar 0.00 mm 2.0 km/h N-NW 337 2 min 6.9 UV-I 856 W/m 26.3 C 3.2 km/h
20.06.2018 13:16 26.2 C 56 % 1018.3 mbar 0.00 mm 3.4 km/h N-NW 337 2 min 6.9 UV-I 856 W/m 26.2 C 6.4 km/h
20.06.2018 13:14 26.3 C 59 % 1018.4 mbar 0.00 mm 5.5 km/h N-NO 20 2 min 6.9 UV-I 860 W/m 26.3 C 9.7 km/h
20.06.2018 13:12 26.3 C 60 % 1018.4 mbar 0.00 mm 3.4 km/h N-NO 29 2 min 6.9 UV-I 860 W/m 26.3 C 9.7 km/h
20.06.2018 13:10 26.3 C 57 % 1018.4 mbar 0.00 mm 3.6 km/h W-SW 237 2 min 7.0 UV-I 861 W/m 26.3 C 6.4 km/h
20.06.2018 13:08 26.1 C 56 % 1018.4 mbar 0.00 mm 2.4 km/h W 273 2 min 6.9 UV-I 858 W/m 26.1 C 4.8 km/h
20.06.2018 13:06 25.9 C 57 % 1018.5 mbar 0.00 mm 1.2 km/h N-NW 328 2 min 6.8 UV-I 856 W/m 25.9 C 3.2 km/h
20.06.2018 13:04 25.9 C 53 % 1018.5 mbar 0.00 mm 2.2 km/h N-NW 328 2 min 6.9 UV-I 800 W/m 25.9 C 4.8 km/h
20.06.2018 13:02 26.0 C 55 % 1018.5 mbar 0.00 mm 4.2 km/h N-NW 328 2 min 6.9 UV-I 853 W/m 26.0 C 8.0 km/h
20.06.2018 13:00 26.1 C 57 % 1018.5 mbar 0.00 mm 4.7 km/h N-NW 342 2 min 4.6 UV-I 849 W/m 26.1 C 9.7 km/h
20.06.2018 12:58 26.1 C 57 % 1018.5 mbar 0.00 mm 3.1 km/h N-NW 327 2 min 6.8 UV-I 849 W/m 26.1 C 8.0 km/h
20.06.2018 12:56 26.1 C 59 % 1018.5 mbar 0.00 mm 6.5 km/h N-NO 22 2 min 6.8 UV-I 846 W/m 26.1 C 8.0 km/h
20.06.2018 12:54 26.0 C 65 % 1018.5 mbar 0.00 mm 5.8 km/h N-NO 25 2 min 3.9 UV-I 846 W/m 26.0 C 9.7 km/h
20.06.2018 12:52 25.9 C 62 % 1018.6 mbar 0.00 mm 2.3 km/h N-NW 336 2 min 6.8 UV-I 851 W/m 25.9 C 6.4 km/h
20.06.2018 12:50 25.8 C 63 % 1018.5 mbar 0.00 mm 3.6 km/h S 175 2 min 6.7 UV-I 849 W/m 25.8 C 4.8 km/h
20.06.2018 12:48 25.7 C 62 % 1018.5 mbar 0.00 mm 2.0 km/h N 5 2 min 6.8 UV-I 849 W/m 25.7 C 4.8 km/h
20.06.2018 12:46 25.6 C 62 % 1018.6 mbar 0.00 mm 3.6 km/h N 5 2 min 6.7 UV-I 844 W/m 25.6 C 8.0 km/h
20.06.2018 12:44 25.4 C 61 % 1018.6 mbar 0.00 mm 1.8 km/h N-NW 340 2 min 6.7 UV-I 842 W/m 25.4 C 3.2 km/h
20.06.2018 12:42 25.4 C 59 % 1018.5 mbar 0.00 mm 2.7 km/h N-NW 340 2 min 6.7 UV-I 842 W/m 25.4 C 6.4 km/h
20.06.2018 12:40 25.5 C 59 % 1018.6 mbar 0.00 mm 1.6 km/h NW 322 2 min 6.7 UV-I 842 W/m 25.5 C 3.2 km/h
20.06.2018 12:38 25.6 C 60 % 1018.6 mbar 0.00 mm 3.1 km/h NW 322 2 min 6.6 UV-I 837 W/m 25.6 C 4.8 km/h
20.06.2018 12:36 25.7 C 59 % 1018.6 mbar 0.00 mm 7.0 km/h N-NW 333 2 min 6.6 UV-I 837 W/m 25.6 C 8.0 km/h
20.06.2018 12:34 26.0 C 60 % 1018.6 mbar 0.00 mm 7.2 km/h N 349 2 min 6.6 UV-I 837 W/m 25.8 C 11.3 km/h
20.06.2018 12:32 26.2 C 62 % 1018.7 mbar 0.00 mm 2.6 km/h N-NW 335 2 min 6.6 UV-I 835 W/m 26.2 C 6.4 km/h
20.06.2018 12:30 26.0 C 61 % 1018.7 mbar 0.00 mm 2.0 km/h O-NO 77 2 min 6.6 UV-I 833 W/m 26.0 C 3.2 km/h
20.06.2018 12:28 25.9 C 64 % 1018.7 mbar 0.00 mm 3.2 km/h O-NO 75 2 min 6.5 UV-I 831 W/m 25.9 C 4.8 km/h
20.06.2018 12:26 25.7 C 63 % 1018.7 mbar 0.00 mm 5.6 km/h O-NO 75 2 min 6.5 UV-I 833 W/m 25.7 C 12.9 km/h
20.06.2018 12:24 25.5 C 64 % 1018.7 mbar 0.00 mm 6.1 km/h N-NO 29 2 min 6.4 UV-I 828 W/m 25.5 C 9.7 km/h
20.06.2018 12:22 25.3 C 63 % 1018.8 mbar 0.00 mm 4.7 km/h NO 52 2 min 6.4 UV-I 824 W/m 25.3 C 8.0 km/h
20.06.2018 12:20 25.3 C 63 % 1018.7 mbar 0.00 mm 7.6 km/h NO 37 2 min 6.4 UV-I 824 W/m 25.0 C 11.3 km/h
20.06.2018 12:18 25.2 C 63 % 1018.8 mbar 0.00 mm 4.1 km/h NO 41 2 min 6.3 UV-I 823 W/m 25.2 C 9.7 km/h
20.06.2018 12:16 25.0 C 67 % 1018.7 mbar 0.00 mm 5.1 km/h N-NO 33 2 min 6.3 UV-I 823 W/m 25.0 C 11.3 km/h
20.06.2018 12:14 24.9 C 64 % 1018.7 mbar 0.00 mm 3.8 km/h NO 56 2 min 6.3 UV-I 821 W/m 24.9 C 6.4 km/h
20.06.2018 12:12 24.9 C 63 % 1018.7 mbar 0.00 mm 1.0 km/h NO 37 2 min 6.3 UV-I 819 W/m 24.9 C 3.2 km/h
20.06.2018 12:10 24.8 C 61 % 1018.7 mbar 0.00 mm 1.3 km/h NO 36 2 min 6.2 UV-I 814 W/m 24.8 C 3.2 km/h
20.06.2018 12:08 24.7 C 64 % 1018.8 mbar 0.00 mm 4.8 km/h NO 36 2 min 6.2 UV-I 817 W/m 24.7 C 6.4 km/h
20.06.2018 12:06 24.6 C 62 % 1018.7 mbar 0.00 mm 4.5 km/h N-NW 345 2 min 6.2 UV-I 812 W/m 24.6 C 8.0 km/h
20.06.2018 12:04 24.6 C 66 % 1018.7 mbar 0.00 mm 3.7 km/h N-NW 341 2 min 6.1 UV-I 809 W/m 24.6 C 8.0 km/h
20.06.2018 12:02 24.6 C 62 % 1018.7 mbar 0.00 mm 4.4 km/h W-NW 289 2 min 6.0 UV-I 809 W/m 24.6 C 4.8 km/h
20.06.2018 12:00 24.6 C 62 % 1018.7 mbar 0.00 mm 5.1 km/h W-NW 294 2 min 6.0 UV-I 805 W/m 24.6 C 8.0 km/h
_ Min-Zeit 05:54 13:48 10:46 - 17:28 - - - - - 05:56 17:28
Minimum _ 16.6 C 49 % 1014.3 mbar - 0.0 km/h - - - - - 16.6 C 0.0 km/h
_ Max-Zeit 18:04 06:36 12:08 12:00 20:20 - - 12:00 13:40 11:40 18:04 12:26
Maximum _ 29.9 C 93 % 1018.8 mbar 0.00 mm 8.3 km/h
W-SW
- - 2 min 7.1 UV-I 953 W/m 29.9 C 12.9 km/h
O-NO
Durchschnitt _ 23.1 C 72 % 1016.4 mbar #0.00 mm 2.2 km/h W - #3:20 h 2.6 UV-I 340 W/m 23.1 C 4.0 km/h